<?xml version="1.0" encoding="UTF-8" standalone="no" ?>
<gpx xmlns="http://www.topografix.com/GPX/1/1" xmlns:xsi="http://www.w3.org/2001/XMLSchema-instance" xsi:schemaLocation="http://www.topografix.com/GPX/1/1 http://www.topografix.com/GPX/1/1/gpx.xsd" version="1.1" creator="VisuGPX - https://www.visugpx.com">
  <metadata>
    <name>Via Francigena de Coublanc à Besançon</name>
    <desc><![CDATA[détail du circuit européen de la Via Francigena de Coublanc à Besançon.]]></desc>
  </metadata>
  <trk>
    <name><![CDATA[OR-3041378--Coublanc:VIA FRANCIGENA]]></name>
    <trkseg>
      <trkpt lat="47.67311" lon="5.46102">
        <ele>249</ele>
        <time>2017-08-02T16:29:43Z</time>
      </trkpt>
      <trkpt lat="47.6718" lon="5.46042">
        <ele>239</ele>
        <time>2017-08-02T16:31:43Z</time>
      </trkpt>
      <trkpt lat="47.67171" lon="5.46076">
        <ele>238</ele>
        <time>2017-08-02T16:33:43Z</time>
      </trkpt>
      <trkpt lat="47.67162" lon="5.46169">
        <ele>241</ele>
        <time>2017-08-02T16:35:43Z</time>
      </trkpt>
      <trkpt lat="47.67156" lon="5.46223">
        <ele>245</ele>
        <time>2017-08-02T16:37:43Z</time>
      </trkpt>
      <trkpt lat="47.6713" lon="5.46298">
        <ele>252</ele>
        <time>2017-08-02T16:39:43Z</time>
      </trkpt>
      <trkpt lat="47.67097" lon="5.46362">
        <ele>262</ele>
        <time>2017-08-02T16:41:43Z</time>
      </trkpt>
      <trkpt lat="47.67071" lon="5.46387">
        <ele>267</ele>
        <time>2017-08-02T16:43:43Z</time>
      </trkpt>
      <trkpt lat="47.66975" lon="5.46427">
        <ele>269</ele>
        <time>2017-08-02T16:45:43Z</time>
      </trkpt>
      <trkpt lat="47.66919" lon="5.46421">
        <ele>264</ele>
        <time>2017-08-02T16:47:43Z</time>
      </trkpt>
      <trkpt lat="47.66858" lon="5.46435">
        <ele>259</ele>
        <time>2017-08-02T16:49:43Z</time>
      </trkpt>
      <trkpt lat="47.6679" lon="5.46433">
        <ele>252</ele>
        <time>2017-08-02T16:51:43Z</time>
      </trkpt>
      <trkpt lat="47.66701" lon="5.46409">
        <ele>245</ele>
        <time>2017-08-02T16:53:43Z</time>
      </trkpt>
      <trkpt lat="47.66574" lon="5.46333">
        <ele>236</ele>
        <time>2017-08-02T16:55:43Z</time>
      </trkpt>
      <trkpt lat="47.66475" lon="5.46481">
        <ele>238</ele>
        <time>2017-08-02T16:57:43Z</time>
      </trkpt>
      <trkpt lat="47.66404" lon="5.46667">
        <ele>240</ele>
        <time>2017-08-02T16:59:43Z</time>
      </trkpt>
      <trkpt lat="47.66372" lon="5.46627">
        <ele>237</ele>
        <time>2017-08-02T17:01:43Z</time>
      </trkpt>
      <trkpt lat="47.66367" lon="5.46602">
        <ele>236</ele>
        <time>2017-08-02T17:03:43Z</time>
      </trkpt>
      <trkpt lat="47.66343" lon="5.46581">
        <ele>235</ele>
        <time>2017-08-02T17:05:43Z</time>
      </trkpt>
      <trkpt lat="47.66309" lon="5.46645">
        <ele>237</ele>
        <time>2017-08-02T17:07:43Z</time>
      </trkpt>
      <trkpt lat="47.66263" lon="5.46913">
        <ele>235</ele>
        <time>2017-08-02T17:09:43Z</time>
      </trkpt>
      <trkpt lat="47.66243" lon="5.46992">
        <ele>237</ele>
        <time>2017-08-02T17:11:43Z</time>
      </trkpt>
      <trkpt lat="47.66229" lon="5.4704">
        <ele>238</ele>
        <time>2017-08-02T17:13:43Z</time>
      </trkpt>
      <trkpt lat="47.6622" lon="5.47111">
        <ele>239</ele>
        <time>2017-08-02T17:15:43Z</time>
      </trkpt>
      <trkpt lat="47.66209" lon="5.47153">
        <ele>240</ele>
        <time>2017-08-02T17:17:43Z</time>
      </trkpt>
      <trkpt lat="47.6618" lon="5.47208">
        <ele>240</ele>
        <time>2017-08-02T17:19:43Z</time>
      </trkpt>
      <trkpt lat="47.66049" lon="5.47473">
        <ele>241</ele>
        <time>2017-08-02T17:21:43Z</time>
      </trkpt>
      <trkpt lat="47.65908" lon="5.4766">
        <ele>237</ele>
        <time>2017-08-02T17:23:43Z</time>
      </trkpt>
      <trkpt lat="47.65747" lon="5.47926">
        <ele>235</ele>
        <time>2017-08-02T17:25:43Z</time>
      </trkpt>
      <trkpt lat="47.65676" lon="5.47991">
        <ele>238</ele>
        <time>2017-08-02T17:27:43Z</time>
      </trkpt>
      <trkpt lat="47.65549" lon="5.48145">
        <ele>237</ele>
        <time>2017-08-02T17:29:43Z</time>
      </trkpt>
      <trkpt lat="47.65476" lon="5.483">
        <ele>234</ele>
        <time>2017-08-02T17:31:43Z</time>
      </trkpt>
      <trkpt lat="47.65308" lon="5.4849">
        <ele>238</ele>
        <time>2017-08-02T17:33:43Z</time>
      </trkpt>
      <trkpt lat="47.65243" lon="5.48601">
        <ele>240</ele>
        <time>2017-08-02T17:35:43Z</time>
      </trkpt>
      <trkpt lat="47.65214" lon="5.48743">
        <ele>240</ele>
        <time>2017-08-02T17:37:43Z</time>
      </trkpt>
      <trkpt lat="47.65203" lon="5.48997">
        <ele>238</ele>
        <time>2017-08-02T17:39:43Z</time>
      </trkpt>
      <trkpt lat="47.65193" lon="5.49139">
        <ele>235</ele>
        <time>2017-08-02T17:41:43Z</time>
      </trkpt>
      <trkpt lat="47.65092" lon="5.49424">
        <ele>232</ele>
        <time>2017-08-02T17:43:43Z</time>
      </trkpt>
      <trkpt lat="47.65132" lon="5.49893">
        <ele>247</ele>
        <time>2017-08-02T17:45:43Z</time>
      </trkpt>
      <trkpt lat="47.65091" lon="5.50069">
        <ele>242</ele>
        <time>2017-08-02T17:47:43Z</time>
      </trkpt>
      <trkpt lat="47.65034" lon="5.5019">
        <ele>243</ele>
        <time>2017-08-02T17:49:43Z</time>
      </trkpt>
      <trkpt lat="47.64969" lon="5.5033">
        <ele>245</ele>
        <time>2017-08-02T17:51:43Z</time>
      </trkpt>
      <trkpt lat="47.6495" lon="5.50364">
        <ele>246</ele>
        <time>2017-08-02T17:53:43Z</time>
      </trkpt>
      <trkpt lat="47.64925" lon="5.50394">
        <ele>243</ele>
        <time>2017-08-02T17:55:43Z</time>
      </trkpt>
      <trkpt lat="47.64911" lon="5.5041">
        <ele>243</ele>
        <time>2017-08-02T17:57:43Z</time>
      </trkpt>
      <trkpt lat="47.6489" lon="5.5042">
        <ele>243</ele>
        <time>2017-08-02T17:59:43Z</time>
      </trkpt>
      <trkpt lat="47.64811" lon="5.50401">
        <ele>237</ele>
        <time>2017-08-02T18:01:43Z</time>
      </trkpt>
      <trkpt lat="47.64804" lon="5.50407">
        <ele>237</ele>
        <time>2017-08-02T18:03:43Z</time>
      </trkpt>
      <trkpt lat="47.648" lon="5.50426">
        <ele>238</ele>
        <time>2017-08-02T18:05:43Z</time>
      </trkpt>
      <trkpt lat="47.64797" lon="5.50469">
        <ele>241</ele>
        <time>2017-08-02T18:07:43Z</time>
      </trkpt>
      <trkpt lat="47.64793" lon="5.50486">
        <ele>242</ele>
        <time>2017-08-02T18:09:43Z</time>
      </trkpt>
      <trkpt lat="47.64741" lon="5.50505">
        <ele>242</ele>
        <time>2017-08-02T18:11:43Z</time>
      </trkpt>
      <trkpt lat="47.64692" lon="5.50513">
        <ele>244</ele>
        <time>2017-08-02T18:13:43Z</time>
      </trkpt>
      <trkpt lat="47.64654" lon="5.50553">
        <ele>247</ele>
        <time>2017-08-02T18:15:43Z</time>
      </trkpt>
      <trkpt lat="47.64566" lon="5.50692">
        <ele>245</ele>
        <time>2017-08-02T18:17:43Z</time>
      </trkpt>
      <trkpt lat="47.64521" lon="5.50772">
        <ele>245</ele>
        <time>2017-08-02T18:19:43Z</time>
      </trkpt>
      <trkpt lat="47.6445" lon="5.50847">
        <ele>238</ele>
        <time>2017-08-02T18:21:43Z</time>
      </trkpt>
      <trkpt lat="47.64419" lon="5.50888">
        <ele>235</ele>
        <time>2017-08-02T18:23:43Z</time>
      </trkpt>
      <trkpt lat="47.64413" lon="5.50945">
        <ele>236</ele>
        <time>2017-08-02T18:25:43Z</time>
      </trkpt>
      <trkpt lat="47.64422" lon="5.51083">
        <ele>239</ele>
        <time>2017-08-02T18:27:43Z</time>
      </trkpt>
      <trkpt lat="47.64418" lon="5.512">
        <ele>234</ele>
        <time>2017-08-02T18:29:43Z</time>
      </trkpt>
      <trkpt lat="47.6441" lon="5.51216">
        <ele>233</ele>
        <time>2017-08-02T18:31:43Z</time>
      </trkpt>
      <trkpt lat="47.64407" lon="5.51278">
        <ele>232</ele>
        <time>2017-08-02T18:33:43Z</time>
      </trkpt>
      <trkpt lat="47.64416" lon="5.51411">
        <ele>229</ele>
        <time>2017-08-02T18:35:43Z</time>
      </trkpt>
      <trkpt lat="47.64379" lon="5.51407">
        <ele>228</ele>
        <time>2017-08-02T18:37:43Z</time>
      </trkpt>
      <trkpt lat="47.64324" lon="5.51387">
        <ele>227</ele>
        <time>2017-08-02T18:39:43Z</time>
      </trkpt>
      <trkpt lat="47.64285" lon="5.51379">
        <ele>227</ele>
        <time>2017-08-02T18:41:43Z</time>
      </trkpt>
      <trkpt lat="47.64232" lon="5.51351">
        <ele>228</ele>
        <time>2017-08-02T18:43:43Z</time>
      </trkpt>
      <trkpt lat="47.64117" lon="5.51362">
        <ele>226</ele>
        <time>2017-08-02T18:45:43Z</time>
      </trkpt>
      <trkpt lat="47.64102" lon="5.51411">
        <ele>225</ele>
        <time>2017-08-02T18:47:43Z</time>
      </trkpt>
      <trkpt lat="47.64049" lon="5.51557">
        <ele>224</ele>
        <time>2017-08-02T18:49:43Z</time>
      </trkpt>
      <trkpt lat="47.63993" lon="5.51593">
        <ele>226</ele>
        <time>2017-08-02T18:51:43Z</time>
      </trkpt>
      <trkpt lat="47.63922" lon="5.51611">
        <ele>227</ele>
        <time>2017-08-02T18:53:43Z</time>
      </trkpt>
      <trkpt lat="47.63871" lon="5.51624">
        <ele>227</ele>
        <time>2017-08-02T18:55:43Z</time>
      </trkpt>
      <trkpt lat="47.63782" lon="5.51707">
        <ele>232</ele>
        <time>2017-08-02T18:57:43Z</time>
      </trkpt>
      <trkpt lat="47.63704" lon="5.5181">
        <ele>231</ele>
        <time>2017-08-02T18:59:43Z</time>
      </trkpt>
      <trkpt lat="47.6365" lon="5.51917">
        <ele>233</ele>
        <time>2017-08-02T19:01:43Z</time>
      </trkpt>
      <trkpt lat="47.636" lon="5.52014">
        <ele>235</ele>
        <time>2017-08-02T19:03:43Z</time>
      </trkpt>
      <trkpt lat="47.63542" lon="5.521">
        <ele>235</ele>
        <time>2017-08-02T19:05:43Z</time>
      </trkpt>
      <trkpt lat="47.6347" lon="5.52147">
        <ele>231</ele>
        <time>2017-08-02T19:07:43Z</time>
      </trkpt>
      <trkpt lat="47.63366" lon="5.52177">
        <ele>228</ele>
        <time>2017-08-02T19:09:43Z</time>
      </trkpt>
      <trkpt lat="47.63186" lon="5.52201">
        <ele>231</ele>
        <time>2017-08-02T19:11:43Z</time>
      </trkpt>
      <trkpt lat="47.63081" lon="5.52159">
        <ele>231</ele>
        <time>2017-08-02T19:13:43Z</time>
      </trkpt>
      <trkpt lat="47.62911" lon="5.52111">
        <ele>237</ele>
        <time>2017-08-02T19:15:43Z</time>
      </trkpt>
      <trkpt lat="47.62862" lon="5.52104">
        <ele>235</ele>
        <time>2017-08-02T19:17:43Z</time>
      </trkpt>
      <trkpt lat="47.62779" lon="5.52106">
        <ele>233</ele>
        <time>2017-08-02T19:19:43Z</time>
      </trkpt>
      <trkpt lat="47.62671" lon="5.52103">
        <ele>232</ele>
        <time>2017-08-02T19:21:43Z</time>
      </trkpt>
      <trkpt lat="47.62543" lon="5.52101">
        <ele>232</ele>
        <time>2017-08-02T19:23:43Z</time>
      </trkpt>
      <trkpt lat="47.62497" lon="5.52061">
        <ele>231</ele>
        <time>2017-08-02T19:25:43Z</time>
      </trkpt>
      <trkpt lat="47.62466" lon="5.52033">
        <ele>230</ele>
        <time>2017-08-02T19:27:43Z</time>
      </trkpt>
      <trkpt lat="47.62453" lon="5.52014">
        <ele>228</ele>
        <time>2017-08-02T19:29:43Z</time>
      </trkpt>
      <trkpt lat="47.62438" lon="5.52001">
        <ele>227</ele>
        <time>2017-08-02T19:31:43Z</time>
      </trkpt>
      <trkpt lat="47.62269" lon="5.51992">
        <ele>228</ele>
        <time>2017-08-02T19:33:43Z</time>
      </trkpt>
      <trkpt lat="47.62228" lon="5.51989">
        <ele>228</ele>
        <time>2017-08-02T19:35:43Z</time>
      </trkpt>
      <trkpt lat="47.62157" lon="5.51954">
        <ele>227</ele>
        <time>2017-08-02T19:37:43Z</time>
      </trkpt>
      <trkpt lat="47.62063" lon="5.51898">
        <ele>225</ele>
        <time>2017-08-02T19:39:43Z</time>
      </trkpt>
      <trkpt lat="47.62002" lon="5.51851">
        <ele>223</ele>
        <time>2017-08-02T19:41:43Z</time>
      </trkpt>
      <trkpt lat="47.61956" lon="5.51849">
        <ele>225</ele>
        <time>2017-08-02T19:43:43Z</time>
      </trkpt>
      <trkpt lat="47.61922" lon="5.51828">
        <ele>226</ele>
        <time>2017-08-02T19:45:43Z</time>
      </trkpt>
      <trkpt lat="47.61863" lon="5.51792">
        <ele>224</ele>
        <time>2017-08-02T19:47:43Z</time>
      </trkpt>
      <trkpt lat="47.61726" lon="5.51776">
        <ele>221</ele>
        <time>2017-08-02T19:49:43Z</time>
      </trkpt>
      <trkpt lat="47.6165" lon="5.51784">
        <ele>223</ele>
        <time>2017-08-02T19:51:43Z</time>
      </trkpt>
      <trkpt lat="47.61642" lon="5.5193">
        <ele>222</ele>
        <time>2017-08-02T19:53:43Z</time>
      </trkpt>
      <trkpt lat="47.61622" lon="5.52016">
        <ele>221</ele>
        <time>2017-08-02T19:55:43Z</time>
      </trkpt>
      <trkpt lat="47.6181" lon="5.52085">
        <ele>227</ele>
        <time>2017-08-02T19:57:43Z</time>
      </trkpt>
      <trkpt lat="47.61802" lon="5.52269">
        <ele>225</ele>
        <time>2017-08-02T19:59:43Z</time>
      </trkpt>
      <trkpt lat="47.61768" lon="5.52473">
        <ele>222</ele>
        <time>2017-08-02T20:01:43Z</time>
      </trkpt>
      <trkpt lat="47.61762" lon="5.52634">
        <ele>221</ele>
        <time>2017-08-02T20:03:43Z</time>
      </trkpt>
      <trkpt lat="47.61782" lon="5.5272">
        <ele>222</ele>
        <time>2017-08-02T20:05:43Z</time>
      </trkpt>
      <trkpt lat="47.6177" lon="5.52782">
        <ele>222</ele>
        <time>2017-08-02T20:07:43Z</time>
      </trkpt>
      <trkpt lat="47.61791" lon="5.52971">
        <ele>226</ele>
        <time>2017-08-02T20:09:43Z</time>
      </trkpt>
      <trkpt lat="47.6181" lon="5.53036">
        <ele>229</ele>
        <time>2017-08-02T20:11:43Z</time>
      </trkpt>
      <trkpt lat="47.61772" lon="5.53145">
        <ele>228</ele>
        <time>2017-08-02T20:13:43Z</time>
      </trkpt>
      <trkpt lat="47.61727" lon="5.53228">
        <ele>226</ele>
        <time>2017-08-02T20:15:43Z</time>
      </trkpt>
      <trkpt lat="47.61714" lon="5.5328">
        <ele>226</ele>
        <time>2017-08-02T20:17:43Z</time>
      </trkpt>
      <trkpt lat="47.61715" lon="5.53316">
        <ele>227</ele>
        <time>2017-08-02T20:19:43Z</time>
      </trkpt>
      <trkpt lat="47.61706" lon="5.53335">
        <ele>227</ele>
        <time>2017-08-02T20:21:43Z</time>
      </trkpt>
      <trkpt lat="47.61694" lon="5.53353">
        <ele>227</ele>
        <time>2017-08-02T20:23:43Z</time>
      </trkpt>
      <trkpt lat="47.61674" lon="5.53363">
        <ele>227</ele>
        <time>2017-08-02T20:25:43Z</time>
      </trkpt>
      <trkpt lat="47.61649" lon="5.53363">
        <ele>227</ele>
        <time>2017-08-02T20:27:43Z</time>
      </trkpt>
      <trkpt lat="47.61603" lon="5.53361">
        <ele>229</ele>
        <time>2017-08-02T20:29:43Z</time>
      </trkpt>
      <trkpt lat="47.61425" lon="5.53256">
        <ele>224</ele>
        <time>2017-08-02T20:31:43Z</time>
      </trkpt>
      <trkpt lat="47.61406" lon="5.53231">
        <ele>223</ele>
        <time>2017-08-02T20:33:43Z</time>
      </trkpt>
      <trkpt lat="47.61402" lon="5.53217">
        <ele>223</ele>
        <time>2017-08-02T20:35:43Z</time>
      </trkpt>
      <trkpt lat="47.61389" lon="5.53201">
        <ele>222</ele>
        <time>2017-08-02T20:37:43Z</time>
      </trkpt>
      <trkpt lat="47.61379" lon="5.53151">
        <ele>221</ele>
        <time>2017-08-02T20:39:43Z</time>
      </trkpt>
      <trkpt lat="47.61353" lon="5.53168">
        <ele>221</ele>
        <time>2017-08-02T20:41:43Z</time>
      </trkpt>
      <trkpt lat="47.61316" lon="5.53171">
        <ele>220</ele>
        <time>2017-08-02T20:43:43Z</time>
      </trkpt>
      <trkpt lat="47.61302" lon="5.53188">
        <ele>220</ele>
        <time>2017-08-02T20:45:43Z</time>
      </trkpt>
      <trkpt lat="47.61303" lon="5.5324">
        <ele>221</ele>
        <time>2017-08-02T20:47:43Z</time>
      </trkpt>
      <trkpt lat="47.61347" lon="5.5343">
        <ele>234</ele>
        <time>2017-08-02T20:49:43Z</time>
      </trkpt>
      <trkpt lat="47.61311" lon="5.53565">
        <ele>238</ele>
        <time>2017-08-02T20:51:43Z</time>
      </trkpt>
      <trkpt lat="47.61254" lon="5.53637">
        <ele>236</ele>
        <time>2017-08-02T20:53:43Z</time>
      </trkpt>
      <trkpt lat="47.61233" lon="5.53698">
        <ele>237</ele>
        <time>2017-08-02T20:55:43Z</time>
      </trkpt>
      <trkpt lat="47.61143" lon="5.53849">
        <ele>234</ele>
        <time>2017-08-02T20:57:43Z</time>
      </trkpt>
      <trkpt lat="47.61102" lon="5.53911">
        <ele>232</ele>
        <time>2017-08-02T20:59:43Z</time>
      </trkpt>
      <trkpt lat="47.60972" lon="5.54038">
        <ele>244</ele>
        <time>2017-08-02T21:01:43Z</time>
      </trkpt>
      <trkpt lat="47.60895" lon="5.54068">
        <ele>247</ele>
        <time>2017-08-02T21:03:43Z</time>
      </trkpt>
      <trkpt lat="47.60776" lon="5.54196">
        <ele>261</ele>
        <time>2017-08-02T21:05:43Z</time>
      </trkpt>
      <trkpt lat="47.6072" lon="5.54286">
        <ele>264</ele>
        <time>2017-08-02T21:07:43Z</time>
      </trkpt>
      <trkpt lat="47.60693" lon="5.54373">
        <ele>264</ele>
        <time>2017-08-02T21:09:43Z</time>
      </trkpt>
      <trkpt lat="47.60665" lon="5.54567">
        <ele>262</ele>
        <time>2017-08-02T21:11:43Z</time>
      </trkpt>
      <trkpt lat="47.60641" lon="5.5467">
        <ele>263</ele>
        <time>2017-08-02T21:13:43Z</time>
      </trkpt>
      <trkpt lat="47.60606" lon="5.54666">
        <ele>262</ele>
        <time>2017-08-02T21:15:43Z</time>
      </trkpt>
      <trkpt lat="47.60602" lon="5.54638">
        <ele>260</ele>
        <time>2017-08-02T21:17:43Z</time>
      </trkpt>
      <trkpt lat="47.60607" lon="5.54617">
        <ele>259</ele>
        <time>2017-08-02T21:19:43Z</time>
      </trkpt>
      <trkpt lat="47.6061" lon="5.54578">
        <ele>256</ele>
        <time>2017-08-02T21:21:43Z</time>
      </trkpt>
      <trkpt lat="47.60604" lon="5.54529">
        <ele>252</ele>
        <time>2017-08-02T21:23:43Z</time>
      </trkpt>
      <trkpt lat="47.6059" lon="5.54499">
        <ele>247</ele>
        <time>2017-08-02T21:25:43Z</time>
      </trkpt>
      <trkpt lat="47.6058" lon="5.5446">
        <ele>246</ele>
        <time>2017-08-02T21:27:43Z</time>
      </trkpt>
      <trkpt lat="47.6048" lon="5.54396">
        <ele>235</ele>
        <time>2017-08-02T21:29:43Z</time>
      </trkpt>
      <trkpt lat="47.60431" lon="5.54352">
        <ele>228</ele>
        <time>2017-08-02T21:31:43Z</time>
      </trkpt>
      <trkpt lat="47.6038" lon="5.5439">
        <ele>226</ele>
        <time>2017-08-02T21:33:43Z</time>
      </trkpt>
      <trkpt lat="47.60207" lon="5.54572">
        <ele>234</ele>
        <time>2017-08-02T21:35:43Z</time>
      </trkpt>
      <trkpt lat="47.60135" lon="5.54634">
        <ele>240</ele>
        <time>2017-08-02T21:37:43Z</time>
      </trkpt>
      <trkpt lat="47.6013" lon="5.54666">
        <ele>242</ele>
        <time>2017-08-02T21:39:43Z</time>
      </trkpt>
      <trkpt lat="47.60038" lon="5.54707">
        <ele>240</ele>
        <time>2017-08-02T21:41:43Z</time>
      </trkpt>
      <trkpt lat="47.59985" lon="5.54748">
        <ele>236</ele>
        <time>2017-08-02T21:43:43Z</time>
      </trkpt>
      <trkpt lat="47.59959" lon="5.54795">
        <ele>235</ele>
        <time>2017-08-02T21:45:43Z</time>
      </trkpt>
      <trkpt lat="47.59932" lon="5.54812">
        <ele>235</ele>
        <time>2017-08-02T21:47:43Z</time>
      </trkpt>
      <trkpt lat="47.59871" lon="5.54818">
        <ele>236</ele>
        <time>2017-08-02T21:49:43Z</time>
      </trkpt>
      <trkpt lat="47.59835" lon="5.54833">
        <ele>237</ele>
        <time>2017-08-02T21:51:43Z</time>
      </trkpt>
      <trkpt lat="47.59764" lon="5.54898">
        <ele>238</ele>
        <time>2017-08-02T21:53:43Z</time>
      </trkpt>
      <trkpt lat="47.59711" lon="5.54914">
        <ele>237</ele>
        <time>2017-08-02T21:55:43Z</time>
      </trkpt>
      <trkpt lat="47.59667" lon="5.54911">
        <ele>235</ele>
        <time>2017-08-02T21:57:43Z</time>
      </trkpt>
      <trkpt lat="47.596" lon="5.5489">
        <ele>230</ele>
        <time>2017-08-02T21:59:43Z</time>
      </trkpt>
      <trkpt lat="47.59515" lon="5.54875">
        <ele>225</ele>
        <time>2017-08-02T22:01:43Z</time>
      </trkpt>
      <trkpt lat="47.59503" lon="5.55007">
        <ele>220</ele>
        <time>2017-08-02T22:03:43Z</time>
      </trkpt>
      <trkpt lat="47.59486" lon="5.55192">
        <ele>218</ele>
        <time>2017-08-02T22:05:43Z</time>
      </trkpt>
      <trkpt lat="47.59453" lon="5.55263">
        <ele>218</ele>
        <time>2017-08-02T22:07:43Z</time>
      </trkpt>
      <trkpt lat="47.59402" lon="5.55331">
        <ele>220</ele>
        <time>2017-08-02T22:09:43Z</time>
      </trkpt>
      <trkpt lat="47.59367" lon="5.55396">
        <ele>220</ele>
        <time>2017-08-02T22:11:43Z</time>
      </trkpt>
      <trkpt lat="47.59343" lon="5.55506">
        <ele>219</ele>
        <time>2017-08-02T22:13:43Z</time>
      </trkpt>
      <trkpt lat="47.59347" lon="5.55559">
        <ele>218</ele>
        <time>2017-08-02T22:15:43Z</time>
      </trkpt>
      <trkpt lat="47.59366" lon="5.5572">
        <ele>216</ele>
        <time>2017-08-02T22:17:43Z</time>
      </trkpt>
      <trkpt lat="47.59346" lon="5.55851">
        <ele>221</ele>
        <time>2017-08-02T22:19:43Z</time>
      </trkpt>
      <trkpt lat="47.59327" lon="5.55964">
        <ele>223</ele>
        <time>2017-08-02T22:21:43Z</time>
      </trkpt>
      <trkpt lat="47.59264" lon="5.56082">
        <ele>222</ele>
        <time>2017-08-02T22:23:43Z</time>
      </trkpt>
      <trkpt lat="47.59236" lon="5.56099">
        <ele>219</ele>
        <time>2017-08-02T22:25:43Z</time>
      </trkpt>
      <trkpt lat="47.59191" lon="5.56177">
        <ele>219</ele>
        <time>2017-08-02T22:27:43Z</time>
      </trkpt>
      <trkpt lat="47.59109" lon="5.56228">
        <ele>216</ele>
        <time>2017-08-02T22:29:43Z</time>
      </trkpt>
      <trkpt lat="47.59081" lon="5.56312">
        <ele>217</ele>
        <time>2017-08-02T22:31:43Z</time>
      </trkpt>
      <trkpt lat="47.5903" lon="5.56354">
        <ele>218</ele>
        <time>2017-08-02T22:33:43Z</time>
      </trkpt>
      <trkpt lat="47.58993" lon="5.56394">
        <ele>220</ele>
        <time>2017-08-02T22:35:43Z</time>
      </trkpt>
      <trkpt lat="47.58988" lon="5.56414">
        <ele>221</ele>
        <time>2017-08-02T22:37:43Z</time>
      </trkpt>
      <trkpt lat="47.58968" lon="5.56453">
        <ele>221</ele>
        <time>2017-08-02T22:39:43Z</time>
      </trkpt>
      <trkpt lat="47.58946" lon="5.5647">
        <ele>220</ele>
        <time>2017-08-02T22:41:43Z</time>
      </trkpt>
      <trkpt lat="47.58911" lon="5.56482">
        <ele>219</ele>
        <time>2017-08-02T22:43:43Z</time>
      </trkpt>
      <trkpt lat="47.58781" lon="5.56561">
        <ele>233</ele>
        <time>2017-08-02T22:45:43Z</time>
      </trkpt>
      <trkpt lat="47.58771" lon="5.5661">
        <ele>234</ele>
        <time>2017-08-02T22:47:43Z</time>
      </trkpt>
      <trkpt lat="47.58645" lon="5.56771">
        <ele>238</ele>
        <time>2017-08-02T22:49:43Z</time>
      </trkpt>
      <trkpt lat="47.58519" lon="5.56921">
        <ele>236</ele>
        <time>2017-08-02T22:51:43Z</time>
      </trkpt>
      <trkpt lat="47.5844" lon="5.57007">
        <ele>233</ele>
        <time>2017-08-02T22:53:43Z</time>
      </trkpt>
      <trkpt lat="47.58349" lon="5.57157">
        <ele>230</ele>
        <time>2017-08-02T22:55:43Z</time>
      </trkpt>
      <trkpt lat="47.58261" lon="5.57233">
        <ele>227</ele>
        <time>2017-08-02T22:57:43Z</time>
      </trkpt>
      <trkpt lat="47.58206" lon="5.57358">
        <ele>227</ele>
        <time>2017-08-02T22:59:43Z</time>
      </trkpt>
      <trkpt lat="47.58157" lon="5.57445">
        <ele>223</ele>
        <time>2017-08-02T23:01:43Z</time>
      </trkpt>
      <trkpt lat="47.58143" lon="5.57453">
        <ele>222</ele>
        <time>2017-08-02T23:03:43Z</time>
      </trkpt>
      <trkpt lat="47.58094" lon="5.57458">
        <ele>218</ele>
        <time>2017-08-02T23:05:43Z</time>
      </trkpt>
      <trkpt lat="47.58065" lon="5.57511">
        <ele>217</ele>
        <time>2017-08-02T23:07:43Z</time>
      </trkpt>
      <trkpt lat="47.58019" lon="5.57574">
        <ele>215</ele>
        <time>2017-08-02T23:09:43Z</time>
      </trkpt>
      <trkpt lat="47.58" lon="5.57632">
        <ele>216</ele>
        <time>2017-08-02T23:11:43Z</time>
      </trkpt>
      <trkpt lat="47.58001" lon="5.57707">
        <ele>217</ele>
        <time>2017-08-02T23:13:43Z</time>
      </trkpt>
      <trkpt lat="47.58" lon="5.57766">
        <ele>217</ele>
        <time>2017-08-02T23:15:43Z</time>
      </trkpt>
      <trkpt lat="47.57994" lon="5.57802">
        <ele>218</ele>
        <time>2017-08-02T23:17:43Z</time>
      </trkpt>
      <trkpt lat="47.57976" lon="5.57838">
        <ele>220</ele>
        <time>2017-08-02T23:19:43Z</time>
      </trkpt>
      <trkpt lat="47.57948" lon="5.57851">
        <ele>220</ele>
        <time>2017-08-02T23:21:43Z</time>
      </trkpt>
      <trkpt lat="47.57902" lon="5.57841">
        <ele>219</ele>
        <time>2017-08-02T23:23:43Z</time>
      </trkpt>
      <trkpt lat="47.57872" lon="5.57839">
        <ele>218</ele>
        <time>2017-08-02T23:25:43Z</time>
      </trkpt>
      <trkpt lat="47.57823" lon="5.57851">
        <ele>216</ele>
        <time>2017-08-02T23:27:43Z</time>
      </trkpt>
      <trkpt lat="47.5781" lon="5.57821">
        <ele>214</ele>
        <time>2017-08-02T23:29:43Z</time>
      </trkpt>
      <trkpt lat="47.57751" lon="5.57765">
        <ele>209</ele>
        <time>2017-08-02T23:31:43Z</time>
      </trkpt>
      <trkpt lat="47.57741" lon="5.57745">
        <ele>209</ele>
        <time>2017-08-02T23:33:43Z</time>
      </trkpt>
      <trkpt lat="47.57733" lon="5.57697">
        <ele>209</ele>
        <time>2017-08-02T23:35:43Z</time>
      </trkpt>
      <trkpt lat="47.57672" lon="5.57549">
        <ele>208</ele>
        <time>2017-08-02T23:37:43Z</time>
      </trkpt>
      <trkpt lat="47.57653" lon="5.57487">
        <ele>210</ele>
        <time>2017-08-02T23:39:43Z</time>
      </trkpt>
      <trkpt lat="47.57569" lon="5.57313">
        <ele>211</ele>
        <time>2017-08-02T23:41:43Z</time>
      </trkpt>
      <trkpt lat="47.57514" lon="5.57221">
        <ele>214</ele>
        <time>2017-08-02T23:43:43Z</time>
      </trkpt>
      <trkpt lat="47.56945" lon="5.57601">
        <ele>220</ele>
        <time>2017-08-02T23:45:43Z</time>
      </trkpt>
      <trkpt lat="47.5688" lon="5.57759">
        <ele>228</ele>
        <time>2017-08-02T23:47:43Z</time>
      </trkpt>
      <trkpt lat="47.56633" lon="5.58389">
        <ele>213</ele>
        <time>2017-08-02T23:49:43Z</time>
      </trkpt>
      <trkpt lat="47.5651" lon="5.58681">
        <ele>213</ele>
        <time>2017-08-02T23:51:43Z</time>
      </trkpt>
      <trkpt lat="47.56532" lon="5.58721">
        <ele>213</ele>
        <time>2017-08-02T23:53:43Z</time>
      </trkpt>
      <trkpt lat="47.56502" lon="5.58872">
        <ele>211</ele>
        <time>2017-08-02T23:55:43Z</time>
      </trkpt>
      <trkpt lat="47.56568" lon="5.58915">
        <ele>211</ele>
        <time>2017-08-02T23:57:43Z</time>
      </trkpt>
      <trkpt lat="47.56586" lon="5.58947">
        <ele>211</ele>
        <time>2017-08-02T23:59:43Z</time>
      </trkpt>
      <trkpt lat="47.5647" lon="5.59085">
        <ele>209</ele>
        <time>2017-08-03T00:01:43Z</time>
      </trkpt>
      <trkpt lat="47.56398" lon="5.59631">
        <ele>220</ele>
        <time>2017-08-03T00:03:43Z</time>
      </trkpt>
      <trkpt lat="47.56361" lon="5.59825">
        <ele>232</ele>
        <time>2017-08-03T00:05:43Z</time>
      </trkpt>
      <trkpt lat="47.56351" lon="5.59968">
        <ele>229</ele>
        <time>2017-08-03T00:07:43Z</time>
      </trkpt>
      <trkpt lat="47.56284" lon="5.60478">
        <ele>216</ele>
        <time>2017-08-03T00:09:43Z</time>
      </trkpt>
      <trkpt lat="47.56353" lon="5.60548">
        <ele>215</ele>
        <time>2017-08-03T00:11:43Z</time>
      </trkpt>
      <trkpt lat="47.56336" lon="5.60771">
        <ele>213</ele>
        <time>2017-08-03T00:13:43Z</time>
      </trkpt>
      <trkpt lat="47.56324" lon="5.60938">
        <ele>215</ele>
        <time>2017-08-03T00:15:43Z</time>
      </trkpt>
      <trkpt lat="47.5629" lon="5.61219">
        <ele>210</ele>
        <time>2017-08-03T00:17:43Z</time>
      </trkpt>
      <trkpt lat="47.56236" lon="5.61558">
        <ele>211</ele>
        <time>2017-08-03T00:19:43Z</time>
      </trkpt>
      <trkpt lat="47.5623" lon="5.61656">
        <ele>217</ele>
        <time>2017-08-03T00:21:43Z</time>
      </trkpt>
      <trkpt lat="47.56253" lon="5.61713">
        <ele>221</ele>
        <time>2017-08-03T00:23:43Z</time>
      </trkpt>
      <trkpt lat="47.56321" lon="5.61809">
        <ele>224</ele>
        <time>2017-08-03T00:25:43Z</time>
      </trkpt>
      <trkpt lat="47.56372" lon="5.61859">
        <ele>224</ele>
        <time>2017-08-03T00:27:43Z</time>
      </trkpt>
      <trkpt lat="47.56434" lon="5.61988">
        <ele>229</ele>
        <time>2017-08-03T00:29:43Z</time>
      </trkpt>
      <trkpt lat="47.56455" lon="5.62094">
        <ele>231</ele>
        <time>2017-08-03T00:31:43Z</time>
      </trkpt>
      <trkpt lat="47.56446" lon="5.62224">
        <ele>233</ele>
        <time>2017-08-03T00:33:43Z</time>
      </trkpt>
      <trkpt lat="47.56362" lon="5.62356">
        <ele>233</ele>
        <time>2017-08-03T00:35:43Z</time>
      </trkpt>
      <trkpt lat="47.56305" lon="5.6249">
        <ele>232</ele>
        <time>2017-08-03T00:37:43Z</time>
      </trkpt>
      <trkpt lat="47.56283" lon="5.62571">
        <ele>231</ele>
        <time>2017-08-03T00:39:43Z</time>
      </trkpt>
      <trkpt lat="47.56235" lon="5.62698">
        <ele>233</ele>
        <time>2017-08-03T00:41:43Z</time>
      </trkpt>
      <trkpt lat="47.56187" lon="5.62794">
        <ele>235</ele>
        <time>2017-08-03T00:43:43Z</time>
      </trkpt>
      <trkpt lat="47.56147" lon="5.62857">
        <ele>237</ele>
        <time>2017-08-03T00:45:43Z</time>
      </trkpt>
      <trkpt lat="47.56029" lon="5.63155">
        <ele>240</ele>
        <time>2017-08-03T00:47:43Z</time>
      </trkpt>
      <trkpt lat="47.55944" lon="5.6341">
        <ele>239</ele>
        <time>2017-08-03T00:49:43Z</time>
      </trkpt>
      <trkpt lat="47.55899" lon="5.63515">
        <ele>239</ele>
        <time>2017-08-03T00:51:43Z</time>
      </trkpt>
      <trkpt lat="47.55673" lon="5.6417">
        <ele>241</ele>
        <time>2017-08-03T00:53:43Z</time>
      </trkpt>
      <trkpt lat="47.55802" lon="5.64244">
        <ele>241</ele>
        <time>2017-08-03T00:55:43Z</time>
      </trkpt>
      <trkpt lat="47.55952" lon="5.6433">
        <ele>241</ele>
        <time>2017-08-03T00:57:43Z</time>
      </trkpt>
      <trkpt lat="47.56038" lon="5.64352">
        <ele>240</ele>
        <time>2017-08-03T00:59:43Z</time>
      </trkpt>
      <trkpt lat="47.56089" lon="5.64368">
        <ele>239</ele>
        <time>2017-08-03T01:01:43Z</time>
      </trkpt>
      <trkpt lat="47.56194" lon="5.64362">
        <ele>233</ele>
        <time>2017-08-03T01:03:43Z</time>
      </trkpt>
      <trkpt lat="47.56223" lon="5.64365">
        <ele>230</ele>
        <time>2017-08-03T01:05:43Z</time>
      </trkpt>
      <trkpt lat="47.5631" lon="5.64425">
        <ele>227</ele>
        <time>2017-08-03T01:07:43Z</time>
      </trkpt>
      <trkpt lat="47.56333" lon="5.64442">
        <ele>226</ele>
        <time>2017-08-03T01:09:43Z</time>
      </trkpt>
      <trkpt lat="47.56362" lon="5.6446">
        <ele>225</ele>
        <time>2017-08-03T01:11:43Z</time>
      </trkpt>
      <trkpt lat="47.56394" lon="5.64471">
        <ele>223</ele>
        <time>2017-08-03T01:13:43Z</time>
      </trkpt>
      <trkpt lat="47.56414" lon="5.6447">
        <ele>222</ele>
        <time>2017-08-03T01:15:43Z</time>
      </trkpt>
      <trkpt lat="47.56409" lon="5.64492">
        <ele>222</ele>
        <time>2017-08-03T01:17:43Z</time>
      </trkpt>
      <trkpt lat="47.56372" lon="5.64534">
        <ele>222</ele>
        <time>2017-08-03T01:19:43Z</time>
      </trkpt>
      <trkpt lat="47.5627" lon="5.64665">
        <ele>221</ele>
        <time>2017-08-03T01:21:43Z</time>
      </trkpt>
      <trkpt lat="47.56235" lon="5.6475">
        <ele>222</ele>
        <time>2017-08-03T01:23:43Z</time>
      </trkpt>
      <trkpt lat="47.5615" lon="5.64882">
        <ele>226</ele>
        <time>2017-08-03T01:25:43Z</time>
      </trkpt>
      <trkpt lat="47.56023" lon="5.65241">
        <ele>231</ele>
        <time>2017-08-03T01:27:43Z</time>
      </trkpt>
      <trkpt lat="47.56006" lon="5.6537">
        <ele>232</ele>
        <time>2017-08-03T01:29:43Z</time>
      </trkpt>
      <trkpt lat="47.55982" lon="5.65477">
        <ele>232</ele>
        <time>2017-08-03T01:31:43Z</time>
      </trkpt>
      <trkpt lat="47.55962" lon="5.65595">
        <ele>228</ele>
        <time>2017-08-03T01:33:43Z</time>
      </trkpt>
      <trkpt lat="47.55959" lon="5.65696">
        <ele>228</ele>
        <time>2017-08-03T01:35:43Z</time>
      </trkpt>
      <trkpt lat="47.55942" lon="5.65793">
        <ele>228</ele>
        <time>2017-08-03T01:37:43Z</time>
      </trkpt>
      <trkpt lat="47.55921" lon="5.6587">
        <ele>227</ele>
        <time>2017-08-03T01:39:43Z</time>
      </trkpt>
      <trkpt lat="47.55895" lon="5.65914">
        <ele>226</ele>
        <time>2017-08-03T01:41:43Z</time>
      </trkpt>
      <trkpt lat="47.55859" lon="5.65962">
        <ele>225</ele>
        <time>2017-08-03T01:43:43Z</time>
      </trkpt>
      <trkpt lat="47.55804" lon="5.66068">
        <ele>222</ele>
        <time>2017-08-03T01:45:43Z</time>
      </trkpt>
      <trkpt lat="47.55699" lon="5.66289">
        <ele>226</ele>
        <time>2017-08-03T01:47:43Z</time>
      </trkpt>
      <trkpt lat="47.55602" lon="5.66603">
        <ele>221</ele>
        <time>2017-08-03T01:49:43Z</time>
      </trkpt>
      <trkpt lat="47.55592" lon="5.66742">
        <ele>222</ele>
        <time>2017-08-03T01:51:43Z</time>
      </trkpt>
      <trkpt lat="47.55567" lon="5.66826">
        <ele>216</ele>
        <time>2017-08-03T01:53:43Z</time>
      </trkpt>
      <trkpt lat="47.55545" lon="5.66903">
        <ele>208</ele>
        <time>2017-08-03T01:55:43Z</time>
      </trkpt>
      <trkpt lat="47.555" lon="5.66998">
        <ele>203</ele>
        <time>2017-08-03T01:57:43Z</time>
      </trkpt>
      <trkpt lat="47.5545" lon="5.67074">
        <ele>201</ele>
        <time>2017-08-03T01:59:43Z</time>
      </trkpt>
      <trkpt lat="47.55371" lon="5.67173">
        <ele>199</ele>
        <time>2017-08-03T02:01:43Z</time>
      </trkpt>
      <trkpt lat="47.55313" lon="5.67285">
        <ele>197</ele>
        <time>2017-08-03T02:03:43Z</time>
      </trkpt>
      <trkpt lat="47.55262" lon="5.67416">
        <ele>196</ele>
        <time>2017-08-03T02:05:43Z</time>
      </trkpt>
      <trkpt lat="47.55247" lon="5.67464">
        <ele>197</ele>
        <time>2017-08-03T02:07:43Z</time>
      </trkpt>
      <trkpt lat="47.5524" lon="5.67531">
        <ele>197</ele>
        <time>2017-08-03T02:09:43Z</time>
      </trkpt>
      <trkpt lat="47.55237" lon="5.67547">
        <ele>197</ele>
        <time>2017-08-03T02:11:43Z</time>
      </trkpt>
      <trkpt lat="47.55203" lon="5.67642">
        <ele>197</ele>
        <time>2017-08-03T02:13:43Z</time>
      </trkpt>
      <trkpt lat="47.55188" lon="5.67713">
        <ele>196</ele>
        <time>2017-08-03T02:15:43Z</time>
      </trkpt>
      <trkpt lat="47.55201" lon="5.67772">
        <ele>196</ele>
        <time>2017-08-03T02:17:43Z</time>
      </trkpt>
      <trkpt lat="47.55196" lon="5.67821">
        <ele>196</ele>
        <time>2017-08-03T02:19:43Z</time>
      </trkpt>
      <trkpt lat="47.55192" lon="5.67851">
        <ele>196</ele>
        <time>2017-08-03T02:21:43Z</time>
      </trkpt>
      <trkpt lat="47.55215" lon="5.67886">
        <ele>195</ele>
        <time>2017-08-03T02:23:43Z</time>
      </trkpt>
      <trkpt lat="47.55248" lon="5.67922">
        <ele>196</ele>
        <time>2017-08-03T02:25:43Z</time>
      </trkpt>
      <trkpt lat="47.55254" lon="5.67934">
        <ele>196</ele>
        <time>2017-08-03T02:27:43Z</time>
      </trkpt>
      <trkpt lat="47.5525" lon="5.6795">
        <ele>196</ele>
        <time>2017-08-03T02:29:43Z</time>
      </trkpt>
      <trkpt lat="47.55188" lon="5.68089">
        <ele>192</ele>
        <time>2017-08-03T02:31:43Z</time>
      </trkpt>
      <trkpt lat="47.55099" lon="5.68314">
        <ele>194</ele>
        <time>2017-08-03T02:33:43Z</time>
      </trkpt>
      <trkpt lat="47.55024" lon="5.68594">
        <ele>196</ele>
        <time>2017-08-03T02:35:43Z</time>
      </trkpt>
      <trkpt lat="47.54965" lon="5.68656">
        <ele>196</ele>
        <time>2017-08-03T02:37:43Z</time>
      </trkpt>
      <trkpt lat="47.54849" lon="5.68775">
        <ele>193</ele>
        <time>2017-08-03T02:39:43Z</time>
      </trkpt>
      <trkpt lat="47.54779" lon="5.68822">
        <ele>193</ele>
        <time>2017-08-03T02:41:43Z</time>
      </trkpt>
      <trkpt lat="47.54626" lon="5.68923">
        <ele>193</ele>
        <time>2017-08-03T02:43:43Z</time>
      </trkpt>
      <trkpt lat="47.54407" lon="5.69038">
        <ele>191</ele>
        <time>2017-08-03T02:45:43Z</time>
      </trkpt>
      <trkpt lat="47.54209" lon="5.69103">
        <ele>193</ele>
        <time>2017-08-03T02:47:43Z</time>
      </trkpt>
      <trkpt lat="47.54167" lon="5.69144">
        <ele>192</ele>
        <time>2017-08-03T02:49:43Z</time>
      </trkpt>
      <trkpt lat="47.54202" lon="5.69208">
        <ele>194</ele>
        <time>2017-08-03T02:51:43Z</time>
      </trkpt>
      <trkpt lat="47.54223" lon="5.69399">
        <ele>196</ele>
        <time>2017-08-03T02:53:43Z</time>
      </trkpt>
      <trkpt lat="47.54171" lon="5.69423">
        <ele>194</ele>
        <time>2017-08-03T02:55:43Z</time>
      </trkpt>
      <trkpt lat="47.54208" lon="5.69609">
        <ele>204</ele>
        <time>2017-08-03T02:57:43Z</time>
      </trkpt>
      <trkpt lat="47.54261" lon="5.69654">
        <ele>210</ele>
        <time>2017-08-03T02:59:43Z</time>
      </trkpt>
      <trkpt lat="47.54274" lon="5.69757">
        <ele>215</ele>
        <time>2017-08-03T03:01:43Z</time>
      </trkpt>
      <trkpt lat="47.5431" lon="5.6985">
        <ele>215</ele>
        <time>2017-08-03T03:03:43Z</time>
      </trkpt>
      <trkpt lat="47.54407" lon="5.70002">
        <ele>212</ele>
        <time>2017-08-03T03:05:43Z</time>
      </trkpt>
      <trkpt lat="47.54523" lon="5.70146">
        <ele>208</ele>
        <time>2017-08-03T03:07:43Z</time>
      </trkpt>
      <trkpt lat="47.54552" lon="5.70204">
        <ele>207</ele>
        <time>2017-08-03T03:09:43Z</time>
      </trkpt>
      <trkpt lat="47.54661" lon="5.70244">
        <ele>206</ele>
        <time>2017-08-03T03:11:43Z</time>
      </trkpt>
      <trkpt lat="47.544" lon="5.70845">
        <ele>221</ele>
        <time>2017-08-03T03:13:43Z</time>
      </trkpt>
      <trkpt lat="47.54438" lon="5.71062">
        <ele>221</ele>
        <time>2017-08-03T03:15:43Z</time>
      </trkpt>
      <trkpt lat="47.54494" lon="5.71143">
        <ele>223</ele>
        <time>2017-08-03T03:17:43Z</time>
      </trkpt>
      <trkpt lat="47.54559" lon="5.71193">
        <ele>223</ele>
        <time>2017-08-03T03:19:43Z</time>
      </trkpt>
      <trkpt lat="47.54523" lon="5.713">
        <ele>214</ele>
        <time>2017-08-03T03:21:43Z</time>
      </trkpt>
      <trkpt lat="47.54495" lon="5.71331">
        <ele>206</ele>
        <time>2017-08-03T03:23:43Z</time>
      </trkpt>
      <trkpt lat="47.54477" lon="5.71337">
        <ele>203</ele>
        <time>2017-08-03T03:25:43Z</time>
      </trkpt>
      <trkpt lat="47.54417" lon="5.71273">
        <ele>205</ele>
        <time>2017-08-03T03:27:43Z</time>
      </trkpt>
      <trkpt lat="47.54393" lon="5.7126">
        <ele>205</ele>
        <time>2017-08-03T03:29:43Z</time>
      </trkpt>
      <trkpt lat="47.54379" lon="5.71261">
        <ele>204</ele>
        <time>2017-08-03T03:31:43Z</time>
      </trkpt>
      <trkpt lat="47.54356" lon="5.71323">
        <ele>198</ele>
        <time>2017-08-03T03:33:43Z</time>
      </trkpt>
      <trkpt lat="47.54351" lon="5.71349">
        <ele>197</ele>
        <time>2017-08-03T03:35:43Z</time>
      </trkpt>
      <trkpt lat="47.54316" lon="5.71405">
        <ele>195</ele>
        <time>2017-08-03T03:37:43Z</time>
      </trkpt>
      <trkpt lat="47.54207" lon="5.71488">
        <ele>194</ele>
        <time>2017-08-03T03:39:43Z</time>
      </trkpt>
      <trkpt lat="47.54108" lon="5.71511">
        <ele>196</ele>
        <time>2017-08-03T03:41:43Z</time>
      </trkpt>
      <trkpt lat="47.54046" lon="5.7155">
        <ele>195</ele>
        <time>2017-08-03T03:43:43Z</time>
      </trkpt>
      <trkpt lat="47.54014" lon="5.71632">
        <ele>192</ele>
        <time>2017-08-03T03:45:43Z</time>
      </trkpt>
      <trkpt lat="47.54011" lon="5.71688">
        <ele>190</ele>
        <time>2017-08-03T03:47:43Z</time>
      </trkpt>
      <trkpt lat="47.5403" lon="5.7181">
        <ele>189</ele>
        <time>2017-08-03T03:49:43Z</time>
      </trkpt>
      <trkpt lat="47.54109" lon="5.71987">
        <ele>190</ele>
        <time>2017-08-03T03:51:43Z</time>
      </trkpt>
      <trkpt lat="47.54131" lon="5.72092">
        <ele>191</ele>
        <time>2017-08-03T03:53:43Z</time>
      </trkpt>
      <trkpt lat="47.54176" lon="5.72287">
        <ele>192</ele>
        <time>2017-08-03T03:55:43Z</time>
      </trkpt>
      <trkpt lat="47.5417" lon="5.72438">
        <ele>192</ele>
        <time>2017-08-03T03:57:43Z</time>
      </trkpt>
      <trkpt lat="47.54169" lon="5.72517">
        <ele>193</ele>
        <time>2017-08-03T03:59:43Z</time>
      </trkpt>
      <trkpt lat="47.54182" lon="5.72599">
        <ele>194</ele>
        <time>2017-08-03T04:01:43Z</time>
      </trkpt>
      <trkpt lat="47.54209" lon="5.72644">
        <ele>194</ele>
        <time>2017-08-03T04:03:43Z</time>
      </trkpt>
      <trkpt lat="47.54246" lon="5.72675">
        <ele>195</ele>
        <time>2017-08-03T04:05:43Z</time>
      </trkpt>
      <trkpt lat="47.54522" lon="5.72858">
        <ele>202</ele>
        <time>2017-08-03T04:07:43Z</time>
      </trkpt>
      <trkpt lat="47.54584" lon="5.72898">
        <ele>202</ele>
        <time>2017-08-03T04:09:43Z</time>
      </trkpt>
      <trkpt lat="47.54632" lon="5.72928">
        <ele>204</ele>
        <time>2017-08-03T04:11:43Z</time>
      </trkpt>
      <trkpt lat="47.54657" lon="5.72954">
        <ele>204</ele>
        <time>2017-08-03T04:13:43Z</time>
      </trkpt>
      <trkpt lat="47.5469" lon="5.73001">
        <ele>205</ele>
        <time>2017-08-03T04:15:43Z</time>
      </trkpt>
      <trkpt lat="47.5471" lon="5.73002">
        <ele>207</ele>
        <time>2017-08-03T04:17:43Z</time>
      </trkpt>
      <trkpt lat="47.54835" lon="5.73073">
        <ele>214</ele>
        <time>2017-08-03T04:19:43Z</time>
      </trkpt>
      <trkpt lat="47.54867" lon="5.731">
        <ele>218</ele>
        <time>2017-08-03T04:21:43Z</time>
      </trkpt>
      <trkpt lat="47.54875" lon="5.73144">
        <ele>219</ele>
        <time>2017-08-03T04:23:43Z</time>
      </trkpt>
      <trkpt lat="47.55139" lon="5.73337">
        <ele>228</ele>
        <time>2017-08-03T04:25:43Z</time>
      </trkpt>
      <trkpt lat="47.55264" lon="5.73427">
        <ele>230</ele>
        <time>2017-08-03T04:27:43Z</time>
      </trkpt>
      <trkpt lat="47.55277" lon="5.73428">
        <ele>230</ele>
        <time>2017-08-03T04:29:43Z</time>
      </trkpt>
      <trkpt lat="47.55304" lon="5.73452">
        <ele>230</ele>
        <time>2017-08-03T04:31:43Z</time>
      </trkpt>
      <trkpt lat="47.55344" lon="5.73511">
        <ele>227</ele>
        <time>2017-08-03T04:33:43Z</time>
      </trkpt>
      <trkpt lat="47.55402" lon="5.73558">
        <ele>218</ele>
        <time>2017-08-03T04:35:43Z</time>
      </trkpt>
      <trkpt lat="47.5548" lon="5.73604">
        <ele>210</ele>
        <time>2017-08-03T04:37:43Z</time>
      </trkpt>
      <trkpt lat="47.5556" lon="5.73641">
        <ele>207</ele>
        <time>2017-08-03T04:39:43Z</time>
      </trkpt>
      <trkpt lat="47.5569" lon="5.73727">
        <ele>202</ele>
        <time>2017-08-03T04:41:43Z</time>
      </trkpt>
      <trkpt lat="47.5595" lon="5.73906">
        <ele>196</ele>
        <time>2017-08-03T04:43:43Z</time>
      </trkpt>
      <trkpt lat="47.56024" lon="5.73973">
        <ele>197</ele>
        <time>2017-08-03T04:45:43Z</time>
      </trkpt>
      <trkpt lat="47.56043" lon="5.73994">
        <ele>197</ele>
        <time>2017-08-03T04:47:43Z</time>
      </trkpt>
      <trkpt lat="47.55823" lon="5.74463">
        <ele>195</ele>
        <time>2017-08-03T04:49:43Z</time>
      </trkpt>
      <trkpt lat="47.55725" lon="5.74688">
        <ele>197</ele>
        <time>2017-08-03T04:51:43Z</time>
      </trkpt>
      <trkpt lat="47.55652" lon="5.74893">
        <ele>197</ele>
        <time>2017-08-03T04:53:43Z</time>
      </trkpt>
      <trkpt lat="47.55596" lon="5.75078">
        <ele>201</ele>
        <time>2017-08-03T04:55:43Z</time>
      </trkpt>
      <trkpt lat="47.55534" lon="5.75203">
        <ele>201</ele>
        <time>2017-08-03T04:57:43Z</time>
      </trkpt>
      <trkpt lat="47.55469" lon="5.75351">
        <ele>201</ele>
        <time>2017-08-03T04:59:43Z</time>
      </trkpt>
      <trkpt lat="47.5529" lon="5.75662">
        <ele>198</ele>
        <time>2017-08-03T05:01:43Z</time>
      </trkpt>
      <trkpt lat="47.55345" lon="5.75718">
        <ele>200</ele>
        <time>2017-08-03T05:03:43Z</time>
      </trkpt>
      <trkpt lat="47.55349" lon="5.75967">
        <ele>200</ele>
        <time>2017-08-03T05:05:43Z</time>
      </trkpt>
      <trkpt lat="47.55656" lon="5.76306">
        <ele>208</ele>
        <time>2017-08-03T05:07:43Z</time>
      </trkpt>
      <trkpt lat="47.55756" lon="5.76343">
        <ele>211</ele>
        <time>2017-08-03T05:09:43Z</time>
      </trkpt>
      <trkpt lat="47.55873" lon="5.76394">
        <ele>213</ele>
        <time>2017-08-03T05:11:43Z</time>
      </trkpt>
      <trkpt lat="47.5593" lon="5.76433">
        <ele>213</ele>
        <time>2017-08-03T05:13:43Z</time>
      </trkpt>
      <trkpt lat="47.56036" lon="5.76547">
        <ele>213</ele>
        <time>2017-08-03T05:15:43Z</time>
      </trkpt>
      <trkpt lat="47.56041" lon="5.76561">
        <ele>212</ele>
        <time>2017-08-03T05:17:43Z</time>
      </trkpt>
      <trkpt lat="47.56019" lon="5.76601">
        <ele>213</ele>
        <time>2017-08-03T05:19:43Z</time>
      </trkpt>
      <trkpt lat="47.56026" lon="5.76632">
        <ele>213</ele>
        <time>2017-08-03T05:21:43Z</time>
      </trkpt>
      <trkpt lat="47.56055" lon="5.76676">
        <ele>213</ele>
        <time>2017-08-03T05:23:43Z</time>
      </trkpt>
      <trkpt lat="47.56098" lon="5.76851">
        <ele>214</ele>
        <time>2017-08-03T05:25:43Z</time>
      </trkpt>
      <trkpt lat="47.56155" lon="5.77019">
        <ele>212</ele>
        <time>2017-08-03T05:27:43Z</time>
      </trkpt>
      <trkpt lat="47.56199" lon="5.77111">
        <ele>212</ele>
        <time>2017-08-03T05:29:43Z</time>
      </trkpt>
      <trkpt lat="47.56288" lon="5.77376">
        <ele>205</ele>
        <time>2017-08-03T05:31:43Z</time>
      </trkpt>
      <trkpt lat="47.56323" lon="5.77566">
        <ele>202</ele>
        <time>2017-08-03T05:33:43Z</time>
      </trkpt>
      <trkpt lat="47.56338" lon="5.77824">
        <ele>209</ele>
        <time>2017-08-03T05:35:43Z</time>
      </trkpt>
      <trkpt lat="47.56312" lon="5.77993">
        <ele>213</ele>
        <time>2017-08-03T05:37:43Z</time>
      </trkpt>
      <trkpt lat="47.56273" lon="5.78143">
        <ele>212</ele>
        <time>2017-08-03T05:39:43Z</time>
      </trkpt>
      <trkpt lat="47.56263" lon="5.78289">
        <ele>209</ele>
        <time>2017-08-03T05:41:43Z</time>
      </trkpt>
      <trkpt lat="47.5629" lon="5.78439">
        <ele>209</ele>
        <time>2017-08-03T05:43:43Z</time>
      </trkpt>
      <trkpt lat="47.56325" lon="5.78645">
        <ele>215</ele>
        <time>2017-08-03T05:45:43Z</time>
      </trkpt>
      <trkpt lat="47.56331" lon="5.7878">
        <ele>216</ele>
        <time>2017-08-03T05:47:43Z</time>
      </trkpt>
      <trkpt lat="47.56396" lon="5.79143">
        <ele>216</ele>
        <time>2017-08-03T05:49:43Z</time>
      </trkpt>
      <trkpt lat="47.56428" lon="5.79521">
        <ele>216</ele>
        <time>2017-08-03T05:51:43Z</time>
      </trkpt>
      <trkpt lat="47.56407" lon="5.7963">
        <ele>218</ele>
        <time>2017-08-03T05:53:43Z</time>
      </trkpt>
      <trkpt lat="47.56337" lon="5.79823">
        <ele>217</ele>
        <time>2017-08-03T05:55:43Z</time>
      </trkpt>
      <trkpt lat="47.56278" lon="5.80001">
        <ele>215</ele>
        <time>2017-08-03T05:57:43Z</time>
      </trkpt>
      <trkpt lat="47.56229" lon="5.80111">
        <ele>216</ele>
        <time>2017-08-03T05:59:43Z</time>
      </trkpt>
      <trkpt lat="47.56184" lon="5.80179">
        <ele>219</ele>
        <time>2017-08-03T06:01:43Z</time>
      </trkpt>
      <trkpt lat="47.56167" lon="5.80244">
        <ele>223</ele>
        <time>2017-08-03T06:03:43Z</time>
      </trkpt>
      <trkpt lat="47.56125" lon="5.8037">
        <ele>221</ele>
        <time>2017-08-03T06:05:43Z</time>
      </trkpt>
      <trkpt lat="47.56073" lon="5.80513">
        <ele>215</ele>
        <time>2017-08-03T06:07:43Z</time>
      </trkpt>
      <trkpt lat="47.56021" lon="5.80583">
        <ele>219</ele>
        <time>2017-08-03T06:09:43Z</time>
      </trkpt>
      <trkpt lat="47.55998" lon="5.80661">
        <ele>225</ele>
        <time>2017-08-03T06:11:43Z</time>
      </trkpt>
      <trkpt lat="47.55906" lon="5.80973">
        <ele>236</ele>
        <time>2017-08-03T06:13:43Z</time>
      </trkpt>
      <trkpt lat="47.55819" lon="5.81085">
        <ele>230</ele>
        <time>2017-08-03T06:15:43Z</time>
      </trkpt>
      <trkpt lat="47.55763" lon="5.8116">
        <ele>226</ele>
        <time>2017-08-03T06:17:43Z</time>
      </trkpt>
      <trkpt lat="47.55676" lon="5.81263">
        <ele>228</ele>
        <time>2017-08-03T06:19:43Z</time>
      </trkpt>
      <trkpt lat="47.55609" lon="5.8139">
        <ele>223</ele>
        <time>2017-08-03T06:21:43Z</time>
      </trkpt>
      <trkpt lat="47.55575" lon="5.81587">
        <ele>215</ele>
        <time>2017-08-03T06:23:43Z</time>
      </trkpt>
      <trkpt lat="47.55567" lon="5.81749">
        <ele>205</ele>
        <time>2017-08-03T06:25:43Z</time>
      </trkpt>
      <trkpt lat="47.55518" lon="5.81849">
        <ele>203</ele>
        <time>2017-08-03T06:27:43Z</time>
      </trkpt>
      <trkpt lat="47.55597" lon="5.81908">
        <ele>201</ele>
        <time>2017-08-03T06:29:43Z</time>
      </trkpt>
      <trkpt lat="47.5555" lon="5.81935">
        <ele>203</ele>
        <time>2017-08-03T06:31:43Z</time>
      </trkpt>
      <trkpt lat="47.55509" lon="5.81951">
        <ele>206</ele>
        <time>2017-08-03T06:33:43Z</time>
      </trkpt>
      <trkpt lat="47.55459" lon="5.82122">
        <ele>219</ele>
        <time>2017-08-03T06:35:43Z</time>
      </trkpt>
      <trkpt lat="47.55417" lon="5.82183">
        <ele>222</ele>
        <time>2017-08-03T06:37:43Z</time>
      </trkpt>
      <trkpt lat="47.55369" lon="5.82209">
        <ele>224</ele>
        <time>2017-08-03T06:39:43Z</time>
      </trkpt>
      <trkpt lat="47.55176" lon="5.82504">
        <ele>227</ele>
        <time>2017-08-03T06:41:43Z</time>
      </trkpt>
      <trkpt lat="47.55121" lon="5.82645">
        <ele>226</ele>
        <time>2017-08-03T06:43:43Z</time>
      </trkpt>
      <trkpt lat="47.55016" lon="5.8284">
        <ele>219</ele>
        <time>2017-08-03T06:45:43Z</time>
      </trkpt>
      <trkpt lat="47.54981" lon="5.82986">
        <ele>210</ele>
        <time>2017-08-03T06:47:43Z</time>
      </trkpt>
      <trkpt lat="47.54985" lon="5.83095">
        <ele>209</ele>
        <time>2017-08-03T06:49:43Z</time>
      </trkpt>
      <trkpt lat="47.54929" lon="5.83265">
        <ele>207</ele>
        <time>2017-08-03T06:51:43Z</time>
      </trkpt>
      <trkpt lat="47.54913" lon="5.83348">
        <ele>205</ele>
        <time>2017-08-03T06:53:43Z</time>
      </trkpt>
      <trkpt lat="47.54798" lon="5.83327">
        <ele>210</ele>
        <time>2017-08-03T06:55:43Z</time>
      </trkpt>
      <trkpt lat="47.54703" lon="5.83292">
        <ele>214</ele>
        <time>2017-08-03T06:57:43Z</time>
      </trkpt>
      <trkpt lat="47.54588" lon="5.83257">
        <ele>219</ele>
        <time>2017-08-03T06:59:43Z</time>
      </trkpt>
      <trkpt lat="47.54496" lon="5.83254">
        <ele>221</ele>
        <time>2017-08-03T07:01:43Z</time>
      </trkpt>
      <trkpt lat="47.54445" lon="5.83223">
        <ele>223</ele>
        <time>2017-08-03T07:03:43Z</time>
      </trkpt>
      <trkpt lat="47.54265" lon="5.83184">
        <ele>229</ele>
        <time>2017-08-03T07:05:43Z</time>
      </trkpt>
      <trkpt lat="47.54151" lon="5.83164">
        <ele>232</ele>
        <time>2017-08-03T07:07:43Z</time>
      </trkpt>
      <trkpt lat="47.54016" lon="5.83169">
        <ele>235</ele>
        <time>2017-08-03T07:09:43Z</time>
      </trkpt>
      <trkpt lat="47.53963" lon="5.83142">
        <ele>236</ele>
        <time>2017-08-03T07:11:43Z</time>
      </trkpt>
      <trkpt lat="47.53912" lon="5.83108">
        <ele>236</ele>
        <time>2017-08-03T07:13:43Z</time>
      </trkpt>
      <trkpt lat="47.53816" lon="5.83022">
        <ele>239</ele>
        <time>2017-08-03T07:15:43Z</time>
      </trkpt>
      <trkpt lat="47.53731" lon="5.82952">
        <ele>238</ele>
        <time>2017-08-03T07:17:43Z</time>
      </trkpt>
      <trkpt lat="47.53672" lon="5.82868">
        <ele>237</ele>
        <time>2017-08-03T07:19:43Z</time>
      </trkpt>
      <trkpt lat="47.5363" lon="5.8283">
        <ele>234</ele>
        <time>2017-08-03T07:21:43Z</time>
      </trkpt>
      <trkpt lat="47.53308" lon="5.82429">
        <ele>235</ele>
        <time>2017-08-03T07:23:43Z</time>
      </trkpt>
      <trkpt lat="47.53276" lon="5.82451">
        <ele>236</ele>
        <time>2017-08-03T07:25:43Z</time>
      </trkpt>
      <trkpt lat="47.53205" lon="5.82432">
        <ele>238</ele>
        <time>2017-08-03T07:27:43Z</time>
      </trkpt>
      <trkpt lat="47.53197" lon="5.82443">
        <ele>238</ele>
        <time>2017-08-03T07:29:43Z</time>
      </trkpt>
      <trkpt lat="47.53183" lon="5.82462">
        <ele>239</ele>
        <time>2017-08-03T07:31:43Z</time>
      </trkpt>
      <trkpt lat="47.53188" lon="5.82489">
        <ele>238</ele>
        <time>2017-08-03T07:33:43Z</time>
      </trkpt>
      <trkpt lat="47.53189" lon="5.82545">
        <ele>238</ele>
        <time>2017-08-03T07:35:43Z</time>
      </trkpt>
      <trkpt lat="47.5318" lon="5.82584">
        <ele>238</ele>
        <time>2017-08-03T07:37:43Z</time>
      </trkpt>
      <trkpt lat="47.53171" lon="5.82636">
        <ele>239</ele>
        <time>2017-08-03T07:39:43Z</time>
      </trkpt>
      <trkpt lat="47.53182" lon="5.82661">
        <ele>238</ele>
        <time>2017-08-03T07:41:43Z</time>
      </trkpt>
      <trkpt lat="47.53199" lon="5.82777">
        <ele>238</ele>
        <time>2017-08-03T07:43:43Z</time>
      </trkpt>
      <trkpt lat="47.5309" lon="5.82827">
        <ele>242</ele>
        <time>2017-08-03T07:45:43Z</time>
      </trkpt>
      <trkpt lat="47.53033" lon="5.82825">
        <ele>246</ele>
        <time>2017-08-03T07:47:43Z</time>
      </trkpt>
      <trkpt lat="47.52963" lon="5.82887">
        <ele>254</ele>
        <time>2017-08-03T07:49:43Z</time>
      </trkpt>
      <trkpt lat="47.52921" lon="5.82894">
        <ele>257</ele>
        <time>2017-08-03T07:51:43Z</time>
      </trkpt>
      <trkpt lat="47.52869" lon="5.82919">
        <ele>258</ele>
        <time>2017-08-03T07:53:43Z</time>
      </trkpt>
      <trkpt lat="47.52725" lon="5.8301">
        <ele>254</ele>
        <time>2017-08-03T07:55:43Z</time>
      </trkpt>
      <trkpt lat="47.5264" lon="5.83168">
        <ele>258</ele>
        <time>2017-08-03T07:57:43Z</time>
      </trkpt>
      <trkpt lat="47.52581" lon="5.83246">
        <ele>257</ele>
        <time>2017-08-03T07:59:43Z</time>
      </trkpt>
      <trkpt lat="47.52413" lon="5.83319">
        <ele>255</ele>
        <time>2017-08-03T08:01:43Z</time>
      </trkpt>
      <trkpt lat="47.52357" lon="5.83383">
        <ele>253</ele>
        <time>2017-08-03T08:03:43Z</time>
      </trkpt>
      <trkpt lat="47.52234" lon="5.83484">
        <ele>250</ele>
        <time>2017-08-03T08:05:43Z</time>
      </trkpt>
      <trkpt lat="47.52014" lon="5.83709">
        <ele>253</ele>
        <time>2017-08-03T08:07:43Z</time>
      </trkpt>
      <trkpt lat="47.51955" lon="5.83827">
        <ele>255</ele>
        <time>2017-08-03T08:09:43Z</time>
      </trkpt>
      <trkpt lat="47.51871" lon="5.83926">
        <ele>252</ele>
        <time>2017-08-03T08:11:43Z</time>
      </trkpt>
      <trkpt lat="47.51814" lon="5.84001">
        <ele>248</ele>
        <time>2017-08-03T08:13:43Z</time>
      </trkpt>
      <trkpt lat="47.51776" lon="5.84131">
        <ele>243</ele>
        <time>2017-08-03T08:15:43Z</time>
      </trkpt>
      <trkpt lat="47.5172" lon="5.84255">
        <ele>238</ele>
        <time>2017-08-03T08:17:43Z</time>
      </trkpt>
      <trkpt lat="47.51722" lon="5.84691">
        <ele>224</ele>
        <time>2017-08-03T08:19:43Z</time>
      </trkpt>
      <trkpt lat="47.51741" lon="5.84871">
        <ele>223</ele>
        <time>2017-08-03T08:21:43Z</time>
      </trkpt>
      <trkpt lat="47.5173" lon="5.84918">
        <ele>225</ele>
        <time>2017-08-03T08:23:43Z</time>
      </trkpt>
      <trkpt lat="47.5165" lon="5.84997">
        <ele>226</ele>
        <time>2017-08-03T08:25:43Z</time>
      </trkpt>
      <trkpt lat="47.51585" lon="5.8511">
        <ele>229</ele>
        <time>2017-08-03T08:27:43Z</time>
      </trkpt>
      <trkpt lat="47.51446" lon="5.85297">
        <ele>231</ele>
        <time>2017-08-03T08:29:43Z</time>
      </trkpt>
      <trkpt lat="47.51414" lon="5.85321">
        <ele>232</ele>
        <time>2017-08-03T08:31:43Z</time>
      </trkpt>
      <trkpt lat="47.51365" lon="5.85318">
        <ele>231</ele>
        <time>2017-08-03T08:33:43Z</time>
      </trkpt>
      <trkpt lat="47.51285" lon="5.85361">
        <ele>230</ele>
        <time>2017-08-03T08:35:43Z</time>
      </trkpt>
      <trkpt lat="47.5122" lon="5.85387">
        <ele>229</ele>
        <time>2017-08-03T08:37:43Z</time>
      </trkpt>
      <trkpt lat="47.51152" lon="5.85402">
        <ele>230</ele>
        <time>2017-08-03T08:39:43Z</time>
      </trkpt>
      <trkpt lat="47.5104" lon="5.85359">
        <ele>238</ele>
        <time>2017-08-03T08:41:43Z</time>
      </trkpt>
      <trkpt lat="47.50989" lon="5.85376">
        <ele>242</ele>
        <time>2017-08-03T08:43:43Z</time>
      </trkpt>
      <trkpt lat="47.50868" lon="5.85557">
        <ele>249</ele>
        <time>2017-08-03T08:45:43Z</time>
      </trkpt>
      <trkpt lat="47.50811" lon="5.85542">
        <ele>250</ele>
        <time>2017-08-03T08:47:43Z</time>
      </trkpt>
      <trkpt lat="47.50756" lon="5.85505">
        <ele>252</ele>
        <time>2017-08-03T08:49:43Z</time>
      </trkpt>
      <trkpt lat="47.5071" lon="5.85494">
        <ele>251</ele>
        <time>2017-08-03T08:51:43Z</time>
      </trkpt>
      <trkpt lat="47.50592" lon="5.85415">
        <ele>251</ele>
        <time>2017-08-03T08:53:43Z</time>
      </trkpt>
      <trkpt lat="47.50515" lon="5.85303">
        <ele>249</ele>
        <time>2017-08-03T08:55:43Z</time>
      </trkpt>
      <trkpt lat="47.50489" lon="5.85275">
        <ele>250</ele>
        <time>2017-08-03T08:57:43Z</time>
      </trkpt>
      <trkpt lat="47.5042" lon="5.85175">
        <ele>252</ele>
        <time>2017-08-03T08:59:43Z</time>
      </trkpt>
      <trkpt lat="47.50379" lon="5.85115">
        <ele>253</ele>
        <time>2017-08-03T09:01:43Z</time>
      </trkpt>
      <trkpt lat="47.50253" lon="5.85138">
        <ele>256</ele>
        <time>2017-08-03T09:03:43Z</time>
      </trkpt>
      <trkpt lat="47.50181" lon="5.85306">
        <ele>254</ele>
        <time>2017-08-03T09:05:43Z</time>
      </trkpt>
      <trkpt lat="47.50089" lon="5.85385">
        <ele>255</ele>
        <time>2017-08-03T09:07:43Z</time>
      </trkpt>
      <trkpt lat="47.50018" lon="5.85424">
        <ele>257</ele>
        <time>2017-08-03T09:09:43Z</time>
      </trkpt>
      <trkpt lat="47.49949" lon="5.85413">
        <ele>262</ele>
        <time>2017-08-03T09:11:43Z</time>
      </trkpt>
      <trkpt lat="47.49811" lon="5.85421">
        <ele>270</ele>
        <time>2017-08-03T09:13:43Z</time>
      </trkpt>
      <trkpt lat="47.49711" lon="5.85473">
        <ele>268</ele>
        <time>2017-08-03T09:15:43Z</time>
      </trkpt>
      <trkpt lat="47.49567" lon="5.85617">
        <ele>264</ele>
        <time>2017-08-03T09:17:43Z</time>
      </trkpt>
      <trkpt lat="47.49521" lon="5.85619">
        <ele>263</ele>
        <time>2017-08-03T09:19:43Z</time>
      </trkpt>
      <trkpt lat="47.49405" lon="5.85621">
        <ele>267</ele>
        <time>2017-08-03T09:21:43Z</time>
      </trkpt>
      <trkpt lat="47.49279" lon="5.85612">
        <ele>269</ele>
        <time>2017-08-03T09:23:43Z</time>
      </trkpt>
      <trkpt lat="47.49198" lon="5.85587">
        <ele>270</ele>
        <time>2017-08-03T09:25:43Z</time>
      </trkpt>
      <trkpt lat="47.49115" lon="5.85604">
        <ele>273</ele>
        <time>2017-08-03T09:27:43Z</time>
      </trkpt>
      <trkpt lat="47.48985" lon="5.85612">
        <ele>272</ele>
        <time>2017-08-03T09:29:43Z</time>
      </trkpt>
      <trkpt lat="47.48914" lon="5.85604">
        <ele>269</ele>
        <time>2017-08-03T09:31:43Z</time>
      </trkpt>
      <trkpt lat="47.48805" lon="5.85624">
        <ele>268</ele>
        <time>2017-08-03T09:33:43Z</time>
      </trkpt>
      <trkpt lat="47.48721" lon="5.85598">
        <ele>268</ele>
        <time>2017-08-03T09:35:43Z</time>
      </trkpt>
      <trkpt lat="47.48516" lon="5.8549">
        <ele>271</ele>
        <time>2017-08-03T09:37:43Z</time>
      </trkpt>
      <trkpt lat="47.48327" lon="5.85447">
        <ele>266</ele>
        <time>2017-08-03T09:39:43Z</time>
      </trkpt>
      <trkpt lat="47.48072" lon="5.85462">
        <ele>260</ele>
        <time>2017-08-03T09:41:43Z</time>
      </trkpt>
      <trkpt lat="47.47942" lon="5.85565">
        <ele>251</ele>
        <time>2017-08-03T09:43:43Z</time>
      </trkpt>
      <trkpt lat="47.47726" lon="5.85814">
        <ele>242</ele>
        <time>2017-08-03T09:45:43Z</time>
      </trkpt>
      <trkpt lat="47.47668" lon="5.85771">
        <ele>243</ele>
        <time>2017-08-03T09:47:43Z</time>
      </trkpt>
      <trkpt lat="47.47437" lon="5.85736">
        <ele>250</ele>
        <time>2017-08-03T09:49:43Z</time>
      </trkpt>
      <trkpt lat="47.47203" lon="5.85876">
        <ele>240</ele>
        <time>2017-08-03T09:51:43Z</time>
      </trkpt>
      <trkpt lat="47.47135" lon="5.85914">
        <ele>241</ele>
        <time>2017-08-03T09:53:43Z</time>
      </trkpt>
      <trkpt lat="47.46996" lon="5.85922">
        <ele>245</ele>
        <time>2017-08-03T09:55:43Z</time>
      </trkpt>
      <trkpt lat="47.46771" lon="5.85808">
        <ele>251</ele>
        <time>2017-08-03T09:57:43Z</time>
      </trkpt>
      <trkpt lat="47.46694" lon="5.85762">
        <ele>247</ele>
        <time>2017-08-03T09:59:43Z</time>
      </trkpt>
      <trkpt lat="47.4651" lon="5.85906">
        <ele>241</ele>
        <time>2017-08-03T10:01:43Z</time>
      </trkpt>
      <trkpt lat="47.46285" lon="5.85981">
        <ele>247</ele>
        <time>2017-08-03T10:03:43Z</time>
      </trkpt>
      <trkpt lat="47.46138" lon="5.86041">
        <ele>256</ele>
        <time>2017-08-03T10:05:43Z</time>
      </trkpt>
      <trkpt lat="47.45994" lon="5.86152">
        <ele>265</ele>
        <time>2017-08-03T10:07:43Z</time>
      </trkpt>
      <trkpt lat="47.45967" lon="5.86155">
        <ele>264</ele>
        <time>2017-08-03T10:09:43Z</time>
      </trkpt>
      <trkpt lat="47.45962" lon="5.86179">
        <ele>264</ele>
        <time>2017-08-03T10:11:43Z</time>
      </trkpt>
      <trkpt lat="47.45905" lon="5.86177">
        <ele>260</ele>
        <time>2017-08-03T10:13:43Z</time>
      </trkpt>
      <trkpt lat="47.45844" lon="5.8623">
        <ele>256</ele>
        <time>2017-08-03T10:15:43Z</time>
      </trkpt>
      <trkpt lat="47.45789" lon="5.86319">
        <ele>255</ele>
        <time>2017-08-03T10:17:43Z</time>
      </trkpt>
      <trkpt lat="47.45785" lon="5.86419">
        <ele>258</ele>
        <time>2017-08-03T10:19:43Z</time>
      </trkpt>
      <trkpt lat="47.45782" lon="5.86474">
        <ele>261</ele>
        <time>2017-08-03T10:21:43Z</time>
      </trkpt>
      <trkpt lat="47.4575" lon="5.86541">
        <ele>264</ele>
        <time>2017-08-03T10:23:43Z</time>
      </trkpt>
      <trkpt lat="47.45708" lon="5.86573">
        <ele>267</ele>
        <time>2017-08-03T10:25:43Z</time>
      </trkpt>
      <trkpt lat="47.45617" lon="5.86684">
        <ele>270</ele>
        <time>2017-08-03T10:27:43Z</time>
      </trkpt>
      <trkpt lat="47.45567" lon="5.86577">
        <ele>268</ele>
        <time>2017-08-03T10:29:43Z</time>
      </trkpt>
      <trkpt lat="47.45562" lon="5.86514">
        <ele>266</ele>
        <time>2017-08-03T10:31:43Z</time>
      </trkpt>
      <trkpt lat="47.455" lon="5.86376">
        <ele>261</ele>
        <time>2017-08-03T10:33:43Z</time>
      </trkpt>
      <trkpt lat="47.45409" lon="5.86176">
        <ele>256</ele>
        <time>2017-08-03T10:35:43Z</time>
      </trkpt>
      <trkpt lat="47.45372" lon="5.86095">
        <ele>254</ele>
        <time>2017-08-03T10:37:43Z</time>
      </trkpt>
      <trkpt lat="47.45163" lon="5.85668">
        <ele>236</ele>
        <time>2017-08-03T10:39:43Z</time>
      </trkpt>
      <trkpt lat="47.45221" lon="5.85595">
        <ele>236</ele>
        <time>2017-08-03T10:41:43Z</time>
      </trkpt>
      <trkpt lat="47.45055" lon="5.85252">
        <ele>240</ele>
        <time>2017-08-03T10:43:43Z</time>
      </trkpt>
      <trkpt lat="47.44996" lon="5.85141">
        <ele>243</ele>
        <time>2017-08-03T10:45:43Z</time>
      </trkpt>
      <trkpt lat="47.44814" lon="5.84909">
        <ele>234</ele>
        <time>2017-08-03T10:47:43Z</time>
      </trkpt>
      <trkpt lat="47.4468" lon="5.85104">
        <ele>244</ele>
        <time>2017-08-03T10:49:43Z</time>
      </trkpt>
      <trkpt lat="47.44632" lon="5.85106">
        <ele>245</ele>
        <time>2017-08-03T10:51:43Z</time>
      </trkpt>
      <trkpt lat="47.44437" lon="5.85178">
        <ele>246</ele>
        <time>2017-08-03T10:53:43Z</time>
      </trkpt>
      <trkpt lat="47.4438" lon="5.85142">
        <ele>242</ele>
        <time>2017-08-03T10:55:43Z</time>
      </trkpt>
      <trkpt lat="47.4421" lon="5.85084">
        <ele>236</ele>
        <time>2017-08-03T10:57:43Z</time>
      </trkpt>
      <trkpt lat="47.44059" lon="5.85024">
        <ele>234</ele>
        <time>2017-08-03T10:59:43Z</time>
      </trkpt>
      <trkpt lat="47.439" lon="5.84932">
        <ele>232</ele>
        <time>2017-08-03T11:01:43Z</time>
      </trkpt>
      <trkpt lat="47.43685" lon="5.84769">
        <ele>229</ele>
        <time>2017-08-03T11:03:43Z</time>
      </trkpt>
      <trkpt lat="47.43578" lon="5.84704">
        <ele>225</ele>
        <time>2017-08-03T11:05:43Z</time>
      </trkpt>
      <trkpt lat="47.43537" lon="5.84706">
        <ele>225</ele>
        <time>2017-08-03T11:07:43Z</time>
      </trkpt>
      <trkpt lat="47.43455" lon="5.84714">
        <ele>225</ele>
        <time>2017-08-03T11:09:43Z</time>
      </trkpt>
      <trkpt lat="47.43429" lon="5.84694">
        <ele>225</ele>
        <time>2017-08-03T11:11:43Z</time>
      </trkpt>
      <trkpt lat="47.43353" lon="5.84654">
        <ele>229</ele>
        <time>2017-08-03T11:13:43Z</time>
      </trkpt>
      <trkpt lat="47.43304" lon="5.84602">
        <ele>232</ele>
        <time>2017-08-03T11:15:43Z</time>
      </trkpt>
      <trkpt lat="47.43275" lon="5.84545">
        <ele>233</ele>
        <time>2017-08-03T11:17:43Z</time>
      </trkpt>
      <trkpt lat="47.42929" lon="5.84231">
        <ele>226</ele>
        <time>2017-08-03T11:19:43Z</time>
      </trkpt>
      <trkpt lat="47.4291" lon="5.84254">
        <ele>228</ele>
        <time>2017-08-03T11:21:43Z</time>
      </trkpt>
      <trkpt lat="47.42798" lon="5.84386">
        <ele>235</ele>
        <time>2017-08-03T11:23:43Z</time>
      </trkpt>
      <trkpt lat="47.42765" lon="5.84435">
        <ele>234</ele>
        <time>2017-08-03T11:25:43Z</time>
      </trkpt>
      <trkpt lat="47.42726" lon="5.84462">
        <ele>231</ele>
        <time>2017-08-03T11:27:43Z</time>
      </trkpt>
      <trkpt lat="47.42668" lon="5.84484">
        <ele>224</ele>
        <time>2017-08-03T11:29:43Z</time>
      </trkpt>
      <trkpt lat="47.42611" lon="5.8446">
        <ele>220</ele>
        <time>2017-08-03T11:31:43Z</time>
      </trkpt>
      <trkpt lat="47.42569" lon="5.84389">
        <ele>217</ele>
        <time>2017-08-03T11:33:43Z</time>
      </trkpt>
      <trkpt lat="47.42537" lon="5.84376">
        <ele>217</ele>
        <time>2017-08-03T11:35:43Z</time>
      </trkpt>
      <trkpt lat="47.4249" lon="5.84352">
        <ele>217</ele>
        <time>2017-08-03T11:37:43Z</time>
      </trkpt>
      <trkpt lat="47.42395" lon="5.84267">
        <ele>214</ele>
        <time>2017-08-03T11:39:43Z</time>
      </trkpt>
      <trkpt lat="47.4235" lon="5.84239">
        <ele>214</ele>
        <time>2017-08-03T11:41:43Z</time>
      </trkpt>
      <trkpt lat="47.42321" lon="5.84241">
        <ele>215</ele>
        <time>2017-08-03T11:43:43Z</time>
      </trkpt>
      <trkpt lat="47.42258" lon="5.84335">
        <ele>219</ele>
        <time>2017-08-03T11:45:43Z</time>
      </trkpt>
      <trkpt lat="47.42198" lon="5.84383">
        <ele>221</ele>
        <time>2017-08-03T11:47:43Z</time>
      </trkpt>
      <trkpt lat="47.42126" lon="5.84426">
        <ele>218</ele>
        <time>2017-08-03T11:49:43Z</time>
      </trkpt>
      <trkpt lat="47.4208" lon="5.84458">
        <ele>217</ele>
        <time>2017-08-03T11:51:43Z</time>
      </trkpt>
      <trkpt lat="47.42051" lon="5.84503">
        <ele>217</ele>
        <time>2017-08-03T11:53:43Z</time>
      </trkpt>
      <trkpt lat="47.42017" lon="5.84597">
        <ele>221</ele>
        <time>2017-08-03T11:55:43Z</time>
      </trkpt>
      <trkpt lat="47.41985" lon="5.84722">
        <ele>222</ele>
        <time>2017-08-03T11:57:43Z</time>
      </trkpt>
      <trkpt lat="47.41945" lon="5.84932">
        <ele>224</ele>
        <time>2017-08-03T11:59:43Z</time>
      </trkpt>
      <trkpt lat="47.41958" lon="5.85007">
        <ele>225</ele>
        <time>2017-08-03T12:01:43Z</time>
      </trkpt>
      <trkpt lat="47.41991" lon="5.85061">
        <ele>228</ele>
        <time>2017-08-03T12:03:43Z</time>
      </trkpt>
      <trkpt lat="47.41975" lon="5.85154">
        <ele>232</ele>
        <time>2017-08-03T12:05:43Z</time>
      </trkpt>
      <trkpt lat="47.41924" lon="5.85237">
        <ele>240</ele>
        <time>2017-08-03T12:07:43Z</time>
      </trkpt>
      <trkpt lat="47.41894" lon="5.8532">
        <ele>248</ele>
        <time>2017-08-03T12:09:43Z</time>
      </trkpt>
      <trkpt lat="47.41884" lon="5.85342">
        <ele>252</ele>
        <time>2017-08-03T12:11:43Z</time>
      </trkpt>
      <trkpt lat="47.41848" lon="5.85362">
        <ele>259</ele>
        <time>2017-08-03T12:13:43Z</time>
      </trkpt>
      <trkpt lat="47.41815" lon="5.85365">
        <ele>262</ele>
        <time>2017-08-03T12:15:43Z</time>
      </trkpt>
      <trkpt lat="47.41778" lon="5.8538">
        <ele>265</ele>
        <time>2017-08-03T12:17:43Z</time>
      </trkpt>
      <trkpt lat="47.41736" lon="5.85408">
        <ele>268</ele>
        <time>2017-08-03T12:19:43Z</time>
      </trkpt>
      <trkpt lat="47.41702" lon="5.85464">
        <ele>272</ele>
        <time>2017-08-03T12:21:43Z</time>
      </trkpt>
      <trkpt lat="47.4163" lon="5.85563">
        <ele>275</ele>
        <time>2017-08-03T12:23:43Z</time>
      </trkpt>
      <trkpt lat="47.41602" lon="5.85636">
        <ele>279</ele>
        <time>2017-08-03T12:25:43Z</time>
      </trkpt>
      <trkpt lat="47.41583" lon="5.85716">
        <ele>282</ele>
        <time>2017-08-03T12:27:43Z</time>
      </trkpt>
      <trkpt lat="47.41573" lon="5.85787">
        <ele>283</ele>
        <time>2017-08-03T12:29:43Z</time>
      </trkpt>
      <trkpt lat="47.41578" lon="5.85863">
        <ele>284</ele>
        <time>2017-08-03T12:31:43Z</time>
      </trkpt>
      <trkpt lat="47.41555" lon="5.85941">
        <ele>283</ele>
        <time>2017-08-03T12:33:43Z</time>
      </trkpt>
      <trkpt lat="47.41418" lon="5.86151">
        <ele>287</ele>
        <time>2017-08-03T12:35:43Z</time>
      </trkpt>
      <trkpt lat="47.4135" lon="5.86239">
        <ele>287</ele>
        <time>2017-08-03T12:37:43Z</time>
      </trkpt>
      <trkpt lat="47.41301" lon="5.86337">
        <ele>287</ele>
        <time>2017-08-03T12:39:43Z</time>
      </trkpt>
      <trkpt lat="47.41261" lon="5.86434">
        <ele>295</ele>
        <time>2017-08-03T12:41:43Z</time>
      </trkpt>
      <trkpt lat="47.41224" lon="5.86449">
        <ele>299</ele>
        <time>2017-08-03T12:43:43Z</time>
      </trkpt>
      <trkpt lat="47.41197" lon="5.8649">
        <ele>306</ele>
        <time>2017-08-03T12:45:43Z</time>
      </trkpt>
      <trkpt lat="47.41157" lon="5.86515">
        <ele>312</ele>
        <time>2017-08-03T12:47:43Z</time>
      </trkpt>
      <trkpt lat="47.41088" lon="5.86544">
        <ele>320</ele>
        <time>2017-08-03T12:49:43Z</time>
      </trkpt>
      <trkpt lat="47.41024" lon="5.86619">
        <ele>324</ele>
        <time>2017-08-03T12:51:43Z</time>
      </trkpt>
      <trkpt lat="47.40977" lon="5.8666">
        <ele>325</ele>
        <time>2017-08-03T12:53:43Z</time>
      </trkpt>
      <trkpt lat="47.40869" lon="5.86748">
        <ele>332</ele>
        <time>2017-08-03T12:55:43Z</time>
      </trkpt>
      <trkpt lat="47.40819" lon="5.86765">
        <ele>337</ele>
        <time>2017-08-03T12:57:43Z</time>
      </trkpt>
      <trkpt lat="47.40789" lon="5.86822">
        <ele>341</ele>
        <time>2017-08-03T12:59:43Z</time>
      </trkpt>
      <trkpt lat="47.40775" lon="5.86905">
        <ele>345</ele>
        <time>2017-08-03T13:01:43Z</time>
      </trkpt>
      <trkpt lat="47.40699" lon="5.8693">
        <ele>344</ele>
        <time>2017-08-03T13:03:43Z</time>
      </trkpt>
      <trkpt lat="47.40502" lon="5.87074">
        <ele>343</ele>
        <time>2017-08-03T13:05:43Z</time>
      </trkpt>
      <trkpt lat="47.40303" lon="5.87112">
        <ele>347</ele>
        <time>2017-08-03T13:07:43Z</time>
      </trkpt>
      <trkpt lat="47.40145" lon="5.87189">
        <ele>343</ele>
        <time>2017-08-03T13:09:43Z</time>
      </trkpt>
      <trkpt lat="47.40269" lon="5.87425">
        <ele>349</ele>
        <time>2017-08-03T13:11:43Z</time>
      </trkpt>
      <trkpt lat="47.40539" lon="5.87887">
        <ele>363</ele>
        <time>2017-08-03T13:13:43Z</time>
      </trkpt>
      <trkpt lat="47.40591" lon="5.87945">
        <ele>364</ele>
        <time>2017-08-03T13:15:43Z</time>
      </trkpt>
      <trkpt lat="47.40541" lon="5.88146">
        <ele>363</ele>
        <time>2017-08-03T13:17:43Z</time>
      </trkpt>
      <trkpt lat="47.4052" lon="5.88456">
        <ele>362</ele>
        <time>2017-08-03T13:19:43Z</time>
      </trkpt>
      <trkpt lat="47.405" lon="5.88613">
        <ele>365</ele>
        <time>2017-08-03T13:21:43Z</time>
      </trkpt>
      <trkpt lat="47.40511" lon="5.88815">
        <ele>374</ele>
        <time>2017-08-03T13:23:43Z</time>
      </trkpt>
      <trkpt lat="47.40513" lon="5.89124">
        <ele>389</ele>
        <time>2017-08-03T13:25:43Z</time>
      </trkpt>
      <trkpt lat="47.40548" lon="5.89552">
        <ele>395</ele>
        <time>2017-08-03T13:27:43Z</time>
      </trkpt>
      <trkpt lat="47.40455" lon="5.89736">
        <ele>400</ele>
        <time>2017-08-03T13:29:43Z</time>
      </trkpt>
      <trkpt lat="47.39887" lon="5.9022">
        <ele>379</ele>
        <time>2017-08-03T13:31:43Z</time>
      </trkpt>
      <trkpt lat="47.39695" lon="5.90199">
        <ele>376</ele>
        <time>2017-08-03T13:33:43Z</time>
      </trkpt>
      <trkpt lat="47.39559" lon="5.90271">
        <ele>376</ele>
        <time>2017-08-03T13:35:43Z</time>
      </trkpt>
      <trkpt lat="47.39521" lon="5.90311">
        <ele>376</ele>
        <time>2017-08-03T13:37:43Z</time>
      </trkpt>
      <trkpt lat="47.39478" lon="5.90306">
        <ele>376</ele>
        <time>2017-08-03T13:39:43Z</time>
      </trkpt>
      <trkpt lat="47.39211" lon="5.90273">
        <ele>366</ele>
        <time>2017-08-03T13:41:43Z</time>
      </trkpt>
      <trkpt lat="47.38659" lon="5.90563">
        <ele>352</ele>
        <time>2017-08-03T13:43:43Z</time>
      </trkpt>
      <trkpt lat="47.38524" lon="5.90578">
        <ele>346</ele>
        <time>2017-08-03T13:45:43Z</time>
      </trkpt>
      <trkpt lat="47.38454" lon="5.90622">
        <ele>343</ele>
        <time>2017-08-03T13:47:43Z</time>
      </trkpt>
      <trkpt lat="47.38298" lon="5.90889">
        <ele>333</ele>
        <time>2017-08-03T13:49:43Z</time>
      </trkpt>
      <trkpt lat="47.3826" lon="5.90915">
        <ele>330</ele>
        <time>2017-08-03T13:51:43Z</time>
      </trkpt>
      <trkpt lat="47.38145" lon="5.9094">
        <ele>321</ele>
        <time>2017-08-03T13:53:43Z</time>
      </trkpt>
      <trkpt lat="47.38107" lon="5.90957">
        <ele>317</ele>
        <time>2017-08-03T13:55:43Z</time>
      </trkpt>
      <trkpt lat="47.38013" lon="5.91054">
        <ele>318</ele>
        <time>2017-08-03T13:57:43Z</time>
      </trkpt>
      <trkpt lat="47.37929" lon="5.91234">
        <ele>314</ele>
        <time>2017-08-03T13:59:43Z</time>
      </trkpt>
      <trkpt lat="47.37903" lon="5.91298">
        <ele>313</ele>
        <time>2017-08-03T14:01:43Z</time>
      </trkpt>
      <trkpt lat="47.37879" lon="5.91399">
        <ele>309</ele>
        <time>2017-08-03T14:03:43Z</time>
      </trkpt>
      <trkpt lat="47.37839" lon="5.91451">
        <ele>303</ele>
        <time>2017-08-03T14:05:43Z</time>
      </trkpt>
      <trkpt lat="47.37799" lon="5.91567">
        <ele>296</ele>
        <time>2017-08-03T14:07:43Z</time>
      </trkpt>
      <trkpt lat="47.37592" lon="5.91781">
        <ele>277</ele>
        <time>2017-08-03T14:09:43Z</time>
      </trkpt>
      <trkpt lat="47.37478" lon="5.91879">
        <ele>266</ele>
        <time>2017-08-03T14:11:43Z</time>
      </trkpt>
      <trkpt lat="47.37385" lon="5.91876">
        <ele>251</ele>
        <time>2017-08-03T14:13:43Z</time>
      </trkpt>
      <trkpt lat="47.3736" lon="5.91901">
        <ele>247</ele>
        <time>2017-08-03T14:15:43Z</time>
      </trkpt>
      <trkpt lat="47.3732" lon="5.92039">
        <ele>241</ele>
        <time>2017-08-03T14:17:43Z</time>
      </trkpt>
      <trkpt lat="47.37327" lon="5.92095">
        <ele>239</ele>
        <time>2017-08-03T14:19:43Z</time>
      </trkpt>
      <trkpt lat="47.37363" lon="5.92177">
        <ele>238</ele>
        <time>2017-08-03T14:21:43Z</time>
      </trkpt>
      <trkpt lat="47.37354" lon="5.92247">
        <ele>237</ele>
        <time>2017-08-03T14:23:43Z</time>
      </trkpt>
      <trkpt lat="47.37287" lon="5.92267">
        <ele>236</ele>
        <time>2017-08-03T14:25:43Z</time>
      </trkpt>
      <trkpt lat="47.3724" lon="5.92262">
        <ele>234</ele>
        <time>2017-08-03T14:27:43Z</time>
      </trkpt>
      <trkpt lat="47.37219" lon="5.92282">
        <ele>235</ele>
        <time>2017-08-03T14:29:43Z</time>
      </trkpt>
      <trkpt lat="47.37201" lon="5.92325">
        <ele>235</ele>
        <time>2017-08-03T14:31:43Z</time>
      </trkpt>
      <trkpt lat="47.37153" lon="5.92316">
        <ele>232</ele>
        <time>2017-08-03T14:33:43Z</time>
      </trkpt>
      <trkpt lat="47.37136" lon="5.92313">
        <ele>233</ele>
        <time>2017-08-03T14:35:43Z</time>
      </trkpt>
      <trkpt lat="47.37094" lon="5.92373">
        <ele>232</ele>
        <time>2017-08-03T14:37:43Z</time>
      </trkpt>
      <trkpt lat="47.37086" lon="5.92397">
        <ele>232</ele>
        <time>2017-08-03T14:39:43Z</time>
      </trkpt>
      <trkpt lat="47.37059" lon="5.92384">
        <ele>232</ele>
        <time>2017-08-03T14:41:43Z</time>
      </trkpt>
      <trkpt lat="47.37039" lon="5.92358">
        <ele>233</ele>
        <time>2017-08-03T14:43:43Z</time>
      </trkpt>
      <trkpt lat="47.3704" lon="5.92327">
        <ele>234</ele>
        <time>2017-08-03T14:45:43Z</time>
      </trkpt>
      <trkpt lat="47.37034" lon="5.92291">
        <ele>238</ele>
        <time>2017-08-03T14:47:43Z</time>
      </trkpt>
      <trkpt lat="47.36917" lon="5.92294">
        <ele>241</ele>
        <time>2017-08-03T14:49:43Z</time>
      </trkpt>
      <trkpt lat="47.36877" lon="5.92434">
        <ele>238</ele>
        <time>2017-08-03T14:51:43Z</time>
      </trkpt>
      <trkpt lat="47.3673" lon="5.92563">
        <ele>236</ele>
        <time>2017-08-03T14:53:43Z</time>
      </trkpt>
      <trkpt lat="47.36621" lon="5.92569">
        <ele>240</ele>
        <time>2017-08-03T14:55:43Z</time>
      </trkpt>
      <trkpt lat="47.36349" lon="5.92715">
        <ele>242</ele>
        <time>2017-08-03T14:57:43Z</time>
      </trkpt>
      <trkpt lat="47.36265" lon="5.9276">
        <ele>244</ele>
        <time>2017-08-03T14:59:43Z</time>
      </trkpt>
      <trkpt lat="47.36157" lon="5.9288">
        <ele>248</ele>
        <time>2017-08-03T15:01:43Z</time>
      </trkpt>
      <trkpt lat="47.359" lon="5.93021">
        <ele>235</ele>
        <time>2017-08-03T15:03:43Z</time>
      </trkpt>
      <trkpt lat="47.358" lon="5.9315">
        <ele>228</ele>
        <time>2017-08-03T15:05:43Z</time>
      </trkpt>
      <trkpt lat="47.35756" lon="5.93217">
        <ele>224</ele>
        <time>2017-08-03T15:07:43Z</time>
      </trkpt>
      <trkpt lat="47.35657" lon="5.93213">
        <ele>219</ele>
        <time>2017-08-03T15:09:43Z</time>
      </trkpt>
      <trkpt lat="47.35595" lon="5.93189">
        <ele>217</ele>
        <time>2017-08-03T15:11:43Z</time>
      </trkpt>
      <trkpt lat="47.35515" lon="5.93183">
        <ele>216</ele>
        <time>2017-08-03T15:13:43Z</time>
      </trkpt>
      <trkpt lat="47.35429" lon="5.93159">
        <ele>217</ele>
        <time>2017-08-03T15:15:43Z</time>
      </trkpt>
      <trkpt lat="47.35404" lon="5.9341">
        <ele>218</ele>
        <time>2017-08-03T15:17:43Z</time>
      </trkpt>
      <trkpt lat="47.35355" lon="5.93468">
        <ele>221</ele>
        <time>2017-08-03T15:19:43Z</time>
      </trkpt>
      <trkpt lat="47.35297" lon="5.93543">
        <ele>226</ele>
        <time>2017-08-03T15:21:43Z</time>
      </trkpt>
      <trkpt lat="47.35288" lon="5.937">
        <ele>231</ele>
        <time>2017-08-03T15:23:43Z</time>
      </trkpt>
      <trkpt lat="47.35266" lon="5.93788">
        <ele>231</ele>
        <time>2017-08-03T15:25:43Z</time>
      </trkpt>
      <trkpt lat="47.35194" lon="5.93861">
        <ele>229</ele>
        <time>2017-08-03T15:27:43Z</time>
      </trkpt>
      <trkpt lat="47.35163" lon="5.93966">
        <ele>224</ele>
        <time>2017-08-03T15:29:43Z</time>
      </trkpt>
      <trkpt lat="47.35108" lon="5.94004">
        <ele>220</ele>
        <time>2017-08-03T15:31:43Z</time>
      </trkpt>
      <trkpt lat="47.35079" lon="5.94028">
        <ele>218</ele>
        <time>2017-08-03T15:33:43Z</time>
      </trkpt>
      <trkpt lat="47.34983" lon="5.94">
        <ele>215</ele>
        <time>2017-08-03T15:35:43Z</time>
      </trkpt>
      <trkpt lat="47.34887" lon="5.94013">
        <ele>213</ele>
        <time>2017-08-03T15:37:43Z</time>
      </trkpt>
      <trkpt lat="47.34632" lon="5.93968">
        <ele>212</ele>
        <time>2017-08-03T15:39:43Z</time>
      </trkpt>
      <trkpt lat="47.34212" lon="5.9388">
        <ele>211</ele>
        <time>2017-08-03T15:41:43Z</time>
      </trkpt>
      <trkpt lat="47.341" lon="5.93867">
        <ele>213</ele>
        <time>2017-08-03T15:43:43Z</time>
      </trkpt>
      <trkpt lat="47.34029" lon="5.93846">
        <ele>217</ele>
        <time>2017-08-03T15:45:43Z</time>
      </trkpt>
      <trkpt lat="47.3401" lon="5.93824">
        <ele>219</ele>
        <time>2017-08-03T15:47:43Z</time>
      </trkpt>
    </trkseg>
  </trk>
</gpx>